HSIM3 / HS-AIM 7700 Squawk Report (25th of June, 2019)

Time Lat Lon Altitude Heading Speed Vertical Rate
2019-06-25 05:11:15 GMT 14.950562 100.246826 7,125 343 209 0
2019-06-25 05:11:07 GMT 14.943827 100.248825 7,125 343 208 0
2019-06-25 05:10:58 GMT 14.936239 100.250977 7,125 342 209 0
2019-06-25 05:10:48 GMT 14.925797 100.254387 7,125 342 209 0
2019-06-25 05:10:37 GMT 14.916966 100.257896 7,125 343 209 0
2019-06-25 05:10:26 GMT 14.906632 100.261230 7,125 343 208 0
2019-06-25 05:10:12 GMT 14.893690 100.265350 7,100 343 209 0
2019-06-25 05:10:02 GMT 14.883820 100.268845 7,125 342 208 0
2019-06-25 05:09:55 GMT 14.877164 100.270943 7,125 343 207 0
2019-06-25 05:09:44 GMT 14.867340 100.274384 7,125 343 207 0
2019-06-25 05:09:33 GMT 14.856400 100.277710 7,125 343 207 0
2019-06-25 05:09:22 GMT 14.847610 100.280556 7,125 343 207 0
2019-06-25 05:09:12 GMT 14.838014 100.283890 7,100 343 206 0
2019-06-25 05:09:01 GMT 14.816088 100.291397 7,125 343 206 0
2019-06-25 05:08:48 GMT 14.816088 100.291397 7,125 343 205 0
2019-06-25 05:08:40 GMT 14.808289 100.294189 7,125 343 206 0
2019-06-25 05:08:29 GMT 14.798212 100.296890 7,125 343 207 0
2019-06-25 05:08:17 GMT 14.787877 100.300407 7,125 343 207 0
2019-06-25 05:08:10 GMT 14.780823 100.303139 7,100 343 207 0
2019-06-25 05:08:06 GMT 14.777527 100.303848 7,100 343 207 64
2019-06-25 05:07:54 GMT 14.766541 100.307358 7,100 343 207 0
2019-06-25 05:07:33 GMT 14.747377 100.314186 7,100 343 208 0
2019-06-25 05:07:22 GMT 14.736969 100.317627 7,125 343 208 -64
2019-06-25 05:07:14 GMT 14.729416 100.319664 7,100 343 207 0
2019-06-25 05:07:06 GMT 14.721959 100.322327 7,100 343 209 0
2019-06-25 05:07:02 GMT 14.718468 100.323730 7,100 343 209 0
2019-06-25 05:06:55 GMT 14.712296 100.325775 7,125 342 209 -64
2019-06-25 05:06:52 GMT 14.709623 100.326569 7,125 343 209 0
2019-06-25 05:06:41 GMT 14.699890 100.330040 7,125 343 208 0
2019-06-25 05:06:30 GMT 14.688904 100.333397 7,100 343 208 64
2019-06-25 05:06:22 GMT 14.682037 100.335434 7,125 343 208 -64
2019-06-25 05:06:19 GMT 14.679291 100.336807 7,125 343 208 -64
2019-06-25 05:06:09 GMT 14.669820 100.339531 7,125 343 208 0
2019-06-25 05:05:58 GMT 14.660019 100.342918 7,125 342 208 -64
2019-06-25 05:05:47 GMT 14.649765 100.346466 7,125 343 207 128
2019-06-25 05:05:36 GMT 14.640306 100.349892 7,100 342 207 -64
2019-06-25 05:05:26 GMT 14.630539 100.353195 7,125 342 206 0
2019-06-25 05:05:15 GMT 14.620941 100.356010 7,125 342 206 64
2019-06-25 05:05:03 GMT 14.610746 100.359482 7,125 342 206 -64
2019-06-25 05:04:52 GMT 14.600281 100.362946 7,125 342 207 0
2019-06-25 05:04:43 GMT 14.590868 100.367043 7,125 336 206 0
2019-06-25 05:04:31 GMT 14.581696 100.371902 7,100 327 206 0
2019-06-25 05:04:21 GMT 14.574249 100.377838 7,100 317 205 0
2019-06-25 05:04:11 GMT 14.567312 100.385498 7,125 307 204 -64
2019-06-25 05:03:59 GMT 14.561819 100.394363 7,125 301 205 0
2019-06-25 05:03:49 GMT 14.557071 100.403328 7,100 300 206 64
2019-06-25 05:03:38 GMT 14.548738 100.423088 7,100 283 207 192
2019-06-25 05:03:28 GMT 14.548738 100.423088 7,100 282 208 0
2019-06-25 05:03:16 GMT 14.546768 100.434830 7,100 281 210 0
2019-06-25 05:03:06 GMT 14.544617 100.444588 7,125 281 211 0
2019-06-25 05:02:55 GMT 14.542603 100.455528 7,125 281 211 0
2019-06-25 05:02:45 GMT 14.541197 100.465782 7,125 281 212 0
2019-06-25 05:02:34 GMT 14.539124 100.476082 7,100 281 212 0
2019-06-25 05:02:23 GMT 14.537147 100.486977 7,125 280 213 -128
2019-06-25 05:02:13 GMT 14.535736 100.498100 7,100 275 212 128
2019-06-25 05:02:02 GMT 14.534912 100.509727 7,100 275 212 0
2019-06-25 05:01:50 GMT 14.534409 100.521400 7,100 271 212 -128
2019-06-25 05:01:39 GMT 14.535004 100.532433 7,125 258 211 64
2019-06-25 05:01:28 GMT 14.538916 100.540611 7,125 235 212 64
2019-06-25 05:01:18 GMT 14.545303 100.549667 7,125 234 212 64
2019-06-25 05:01:07 GMT 14.552090 100.559212 7,125 234 212 0
2019-06-25 05:00:58 GMT 14.558887 100.568031 7,125 234 213 0
2019-06-25 05:00:55 GMT 14.558887 100.568031 7,125 234 212 -64
2019-06-25 05:00:48 GMT 14.563065 100.574295 7,100 234 213 64
2019-06-25 05:00:44 GMT 14.565079 100.577087 7,100 234 213 0
2019-06-25 05:00:36 GMT 14.570023 100.583954 7,125 234 213 -64
2019-06-25 05:00:33 GMT 14.571875 100.586632 7,125 234 213 -64
2019-06-25 05:00:23 GMT 14.578217 100.595032 7,125 234 211 64
2019-06-25 05:00:14 GMT 14.584442 100.603798 7,125 234 212 0
2019-06-25 05:00:11 GMT 14.584442 100.603798 7,125 234 212 0
2019-06-25 05:00:01 GMT 14.590495 100.612022 7,100 234 211 0
2019-06-25 04:59:53 GMT 14.595337 100.618813 7,100 234 211 -64
2019-06-25 04:59:50 GMT 14.596780 100.621613 7,100 234 211 0
2019-06-25 04:59:40 GMT 14.602832 100.629852 7,125 234 211 0
2019-06-25 04:59:29 GMT 14.609070 100.638885 7,125 234 211 0
2019-06-25 04:59:18 GMT 14.615982 100.647789 7,100 234 211 0
2019-06-25 04:59:11 GMT 14.620010 100.653282 7,125 234 211 -64
2019-06-25 04:59:07 GMT 14.622011 100.656639 7,125 234 211 0
2019-06-25 04:59:00 GMT 14.628342 100.665642 7,100 234 211 0
2019-06-25 04:58:56 GMT 14.628342 100.665642 7,100 234 211 0
2019-06-25 04:58:48 GMT 14.632416 100.671135 7,125 234 210 0
2019-06-25 04:58:45 GMT 14.635117 100.674683 7,125 234 211 -64
2019-06-25 04:58:34 GMT 14.641388 100.682922 7,125 234 210 0
2019-06-25 04:58:27 GMT 14.645508 100.688416 7,125 234 210 0
2019-06-25 04:58:23 GMT 14.648127 100.692398 7,100 234 210 64
2019-06-25 04:58:15 GMT 14.652317 100.698517 7,100 234 210 -64
2019-06-25 04:58:04 GMT 14.659195 100.707642 7,125 234 209 0
2019-06-25 04:57:52 GMT 14.665398 100.716347 7,125 234 210 64
2019-06-25 04:57:42 GMT 14.671509 100.724648 7,125 234 210 0
2019-06-25 04:57:32 GMT 14.677826 100.732979 7,100 234 210 0
2019-06-25 04:57:21 GMT 14.684006 100.741837 7,100 234 210 64
2019-06-25 04:57:10 GMT 14.689978 100.750702 7,100 234 212 -64
2019-06-25 04:56:59 GMT 14.697007 100.759613 7,100 234 212 64
2019-06-25 04:56:49 GMT 14.703140 100.767975 7,125 234 212 0
2019-06-25 04:56:38 GMT 14.709274 100.776924 7,125 234 211 0
2019-06-25 04:56:26 GMT 14.716140 100.786362 7,125 235 212 64
2019-06-25 04:56:15 GMT 14.722285 100.795319 7,100 236 212 -64
2019-06-25 04:56:04 GMT 14.727871 100.804329 7,125 246 211 -128
2019-06-25 04:55:54 GMT 14.731339 100.814713 7,125 252 211 -64
2019-06-25 04:55:43 GMT 14.734863 100.824898 7,100 252 211 0
2019-06-25 04:55:31 GMT 14.738113 100.835892 7,100 252 211 0
2019-06-25 04:55:22 GMT 14.740859 100.845528 7,125 253 211 0
2019-06-25 04:55:10 GMT 14.744431 100.856529 7,125 252 211 0
2019-06-25 04:55:00 GMT 14.747910 100.866943 7,100 252 211 -128
2019-06-25 04:54:48 GMT 14.751892 100.877716 7,125 250 211 0
2019-06-25 04:54:38 GMT 14.755417 100.887451 7,100 250 211 64
2019-06-25 04:54:26 GMT 14.758735 100.898338 7,100 250 211 0
2019-06-25 04:54:16 GMT 14.762238 100.908096 7,125 250 211 0
2019-06-25 04:54:06 GMT 14.766370 100.918335 7,100 250 210 64
2019-06-25 04:53:55 GMT 14.769791 100.928604 7,125 250 208 -64
2019-06-25 04:53:44 GMT 14.773956 100.939018 7,125 250 206 0
2019-06-25 04:53:32 GMT 14.776703 100.948494 7,100 251 205 0
2019-06-25 04:53:11 GMT 14.780823 100.969231 7,125 270 201 -64
2019-06-25 04:53:00 GMT 14.780848 100.979439 7,125 270 198 0
2019-06-25 04:52:50 GMT 14.780894 100.988976 7,100 271 192 0
2019-06-25 04:52:37 GMT 14.780894 100.999962 7,100 271 191 0
2019-06-25 04:52:26 GMT 14.780801 101.010323 7,100 272 188 0
2019-06-25 04:51:03 GMT 14.726754 101.022850 7,100 16 186 0
2019-06-25 04:50:55 GMT 14.720562 101.020828 7,100 16 186 0
2019-06-25 04:50:52 GMT 14.717102 101.020142 7,100 15 197 0
2019-06-25 04:50:49 GMT 14.715814 101.019478 7,100 15 197 0
2019-06-25 04:50:46 GMT 14.712982 101.018768 7,100 15 197 0
2019-06-25 04:50:40 GMT 14.706783 101.016731 7,100 15 197 0
2019-06-25 04:50:37 GMT 14.704742 101.016068 7,100 16 201 64
2019-06-25 04:50:29 GMT 14.697876 101.013885 7,100 16 204 -128
2019-06-25 04:50:26 GMT 14.694447 101.013313 7,125 15 207 -192
2019-06-25 04:50:17 GMT 14.685425 101.010429 7,125 16 212 -192
2019-06-25 04:49:59 GMT 14.668945 101.005600 7,100 16 228 -256
2019-06-25 04:49:54 GMT 14.664327 101.004250 7,150 16 231 -512
2019-06-25 04:49:44 GMT 14.652550 101.000877 7,325 16 234 -1280
2019-06-25 04:49:36 GMT 14.643631 100.998070 7,500 16 235 -1216
2019-06-25 04:49:32 GMT 14.641005 100.997414 7,550 16 235 -1344
2019-06-25 04:49:25 GMT 14.632020 100.994667 7,725 15 236 -1280
2019-06-25 04:49:21 GMT 14.629898 100.994049 7,775 15 236 -1280
2019-06-25 04:49:13 GMT 14.620335 100.991287 7,950 15 237 -1280
2019-06-25 04:49:02 GMT 14.608046 100.987869 8,175 16 239 -1280
2019-06-25 04:48:59 GMT 14.606461 100.987228 8,175 16 239 -1280
2019-06-25 04:48:53 GMT 14.598953 100.985191 8,350 16 240 -1408
2019-06-25 04:48:50 GMT 14.595663 100.983727 8,400 15 240 -1408
2019-06-25 04:48:41 GMT 14.586594 100.981590 8,575 16 241 -1280
2019-06-25 04:48:38 GMT 14.583206 100.980270 8,650 16 242 -1216
2019-06-25 04:48:31 GMT 14.575653 100.978279 8,775 16 242 -1280
2019-06-25 04:48:28 GMT 14.572220 100.976906 8,850 16 242 -1280
2019-06-25 04:48:24 GMT 14.568832 100.976196 8,900 16 243 -1280
2019-06-25 04:48:21 GMT 14.563980 100.974724 9,000 16 243 -1280
2019-06-25 04:48:15 GMT 14.558395 100.972786 9,100 16 243 -1280
2019-06-25 04:48:10 GMT 14.552353 100.971313 9,225 15 245 -1280
2019-06-25 04:48:06 GMT 14.545349 100.969276 9,350 16 245 -1280
2019-06-25 04:47:56 GMT 14.536541 100.966476 9,500 16 246 -1280
2019-06-25 04:47:48 GMT 14.528915 100.964500 9,625 16 247 -1280
2019-06-25 04:47:44 GMT 14.524063 100.963127 9,725 16 247 -1344
2019-06-25 04:47:37 GMT 14.516556 100.960381 9,850 16 249 -1344
2019-06-25 04:47:34 GMT 14.512436 100.959618 9,925 15 249 -1280
2019-06-25 04:47:27 GMT 14.504374 100.956985 10,075 15 250 -1280
2019-06-25 04:47:23 GMT 14.498136 100.954819 10,200 16 252 -1344
2019-06-25 04:47:16 GMT 14.487848 100.952209 10,350 16 252 -1344
2019-06-25 04:47:12 GMT 14.487848 100.952209 10,375 16 252 -1344
2019-06-25 04:47:05 GMT 14.479477 100.950005 10,525 16 251 -1280
2019-06-25 04:47:01 GMT 14.474860 100.948647 10,600 15 252 -1280
2019-06-25 04:46:54 GMT 14.467896 100.945984 10,725 15 252 -1344
2019-06-25 04:46:50 GMT 14.463222 100.944595 10,825 15 251 -1280
2019-06-25 04:46:42 GMT 14.455541 100.942528 10,950 16 251 -1344
2019-06-25 04:46:39 GMT 14.450094 100.941223 11,050 16 251 -1344
2019-06-25 04:46:36 GMT 14.448651 100.940506 11,075 16 251 -1280
2019-06-25 04:46:32 GMT 14.443771 100.939018 11,175 16 251 -1280
2019-06-25 04:46:28 GMT 14.438370 100.937790 11,250 16 251 -1344
2019-06-25 04:46:22 GMT 14.431566 100.935638 11,400 15 250 -1344
2019-06-25 04:46:17 GMT 14.425964 100.934235 11,500 15 250 -1344
2019-06-25 04:46:14 GMT 14.423904 100.933624 11,525 16 250 -1344
2019-06-25 04:46:09 GMT 14.416901 100.931488 11,650 16 249 -1344
2019-06-25 04:46:06 GMT 14.414200 100.930115 11,725 16 249 -1344
2019-06-25 04:45:57 GMT 14.405404 100.927490 11,875 16 248 -1280
2019-06-25 04:45:52 GMT 14.399780 100.925995 11,975 15 247 -1280
2019-06-25 04:45:47 GMT 14.393051 100.924011 12,075 15 247 -1280
2019-06-25 04:45:44 GMT 14.389623 100.923347 12,150 16 246 -1280
2019-06-25 04:45:39 GMT 14.383301 100.921265 12,250 16 245 -1280
2019-06-25 04:45:31 GMT 14.375890 100.919106 12,400 15 244 -1280
2019-06-25 04:45:28 GMT 14.371747 100.917908 12,475 15 243 -1152
2019-06-25 04:45:23 GMT 14.363507 100.915733 12,600 16 242 -1088
2019-06-25 04:45:16 GMT 14.360108 100.914436 12,650 16 242 -1024
2019-06-25 04:45:12 GMT 14.354507 100.913025 12,725 15 241 -1088
2019-06-25 04:45:05 GMT 14.346422 100.910294 12,875 15 240 -1152
2019-06-25 04:45:01 GMT 14.342880 100.909615 12,925 16 239 -1152
2019-06-25 04:44:56 GMT 14.336832 100.907593 13,025 15 238 -1088
2019-06-25 04:44:47 GMT 14.328593 100.905472 13,150 15 237 -1088
2019-06-25 04:44:44 GMT 14.325760 100.904739 13,200 15 236 -1088
2019-06-25 04:44:40 GMT 14.320353 100.902725 13,275 16 235 -1024
2019-06-25 04:44:36 GMT 14.311368 100.899979 13,375 16 234 -1088
2019-06-25 04:44:32 GMT 14.311368 100.899979 13,425 16 233 -1152
2019-06-25 04:44:29 GMT 14.308548 100.899292 13,475 16 233 -1088
2019-06-25 04:44:23 GMT 14.302963 100.897820 13,550 16 231 -1088
2019-06-25 04:44:20 GMT 14.299684 100.896561 13,600 16 231 -1088
2019-06-25 04:44:16 GMT 14.295502 100.895172 13,675 16 230 -1152
2019-06-25 04:44:13 GMT 14.289230 100.893799 13,775 15 227 -1088
2019-06-25 04:44:10 GMT 14.288697 100.893814 13,775 15 227 -1088
2019-06-25 04:44:06 GMT 14.286575 100.892990 13,825 15 227 -1024
2019-06-25 04:44:03 GMT 14.282459 100.891693 13,875 15 226 -1024
2019-06-25 04:43:57 GMT 14.276184 100.889679 13,975 15 226 -960
2019-06-25 04:43:52 GMT 14.272311 100.888992 14,025 15 226 -960
2019-06-25 04:43:46 GMT 14.265244 100.886833 14,150 15 226 -960
2019-06-25 04:43:41 GMT 14.261138 100.885574 14,200 15 226 -960
2019-06-25 04:43:37 GMT 14.255738 100.884178 14,275 16 226 -960
2019-06-25 04:43:33 GMT 14.252151 100.882767 14,325 16 227 -960
2019-06-25 04:43:29 GMT 14.249405 100.882004 14,375 16 227 -1024
2019-06-25 04:43:24 GMT 14.242704 100.879982 14,650 16 227 -960
2019-06-25 04:43:19 GMT 14.238556 100.878639 14,725 16 230 -960
2019-06-25 04:43:15 GMT 14.233658 100.877220 14,625 16 227 -960
2019-06-25 04:43:11 GMT 14.231019 100.876610 14,650 16 227 -960
2019-06-25 04:43:08 GMT 14.227574 100.875259 14,700 16 227 -960
2019-06-25 04:43:05 GMT 14.223450 100.874428 14,775 16 228 -960
2019-06-25 04:43:02 GMT 14.220566 100.873199 14,825 16 229 -960
2019-06-25 04:42:54 GMT 14.212491 100.871117 14,925 15 229 -960
2019-06-25 04:42:50 GMT 14.207603 100.869766 15,000 15 229 -960
2019-06-25 04:42:47 GMT 14.205555 100.868996 15,025 15 229 -960
2019-06-25 04:42:41 GMT 14.198685 100.866943 15,125 16 230 -960
2019-06-25 04:42:30 GMT 14.187120 100.863602 15,300 16 230 -960
2019-06-25 04:42:22 GMT 14.178772 100.861504 15,425 16 231 -960
2019-06-25 04:42:19 GMT 14.176025 100.860031 15,450 16 231 -960
2019-06-25 04:42:14 GMT 14.171991 100.858826 15,525 15 230 -960
2019-06-25 04:42:11 GMT 14.167831 100.858047 15,575 15 230 -960
2019-06-25 04:42:08 GMT 14.164993 100.857430 15,600 15 230 -960
2019-06-25 04:42:00 GMT 14.156799 100.854538 15,750 15 230 -960
2019-06-25 04:41:57 GMT 14.154739 100.853928 15,775 16 231 -960
2019-06-25 04:41:52 GMT 14.148468 100.852455 15,850 16 231 -960
2019-06-25 04:41:47 GMT 14.143128 100.850449 15,925 16 231 -960
2019-06-25 04:41:39 GMT 14.134237 100.847839 16,050 15 231 -960
2019-06-25 04:41:36 GMT 14.132142 100.847694 16,100 15 231 -960
2019-06-25 04:41:30 GMT 14.125854 100.845779 16,175 15 232 -960
2019-06-25 04:41:27 GMT 14.123108 100.845070 16,375 16 233 -1024
2019-06-25 04:41:24 GMT 14.121109 100.844276 16,375 16 233 -1024
2019-06-25 04:41:17 GMT 14.112122 100.841560 16,375 16 233 -1024
2019-06-25 04:41:13 GMT 14.108002 100.840195 16,450 16 233 -1024
2019-06-25 04:41:08 GMT 14.103326 100.838829 16,500 15 232 -960
2019-06-25 04:41:03 GMT 14.097794 100.837494 16,600 15 232 -960
2019-06-25 04:40:57 GMT 14.092387 100.835457 16,700 15 233 -960
2019-06-25 04:40:53 GMT 14.086716 100.834084 16,750 15 234 -960
2019-06-25 04:40:50 GMT 14.083355 100.833336 16,800 16 235 -1024
2019-06-25 04:40:45 GMT 14.078561 100.831940 16,875 16 235 -960
2019-06-25 04:40:42 GMT 14.075116 100.830544 16,925 16 235 -960
2019-06-25 04:40:38 GMT 14.071564 100.829918 16,975 16 235 -1024
2019-06-25 04:40:34 GMT 14.067528 100.828468 17,025 15 236 -1024
2019-06-25 04:40:31 GMT 14.064129 100.827271 17,075 15 236 -1024
2019-06-25 04:40:28 GMT 14.060731 100.826546 17,125 15 236 -1024
2019-06-25 04:40:23 GMT 14.055817 100.825089 17,175 15 236 -1024
2019-06-25 04:40:20 GMT 14.052429 100.824371 17,250 15 237 -960
2019-06-25 04:40:16 GMT 14.048441 100.823074 17,300 16 237 -960
2019-06-25 04:40:13 GMT 14.044189 100.821625 17,350 16 237 -960
2019-06-25 04:40:09 GMT 14.040802 100.820915 17,400 16 237 -960
2019-06-25 04:40:02 GMT 14.033157 100.818123 17,525 16 237 -960
2019-06-25 04:39:55 GMT 14.026469 100.816185 17,600 16 238 -960
2019-06-25 04:39:50 GMT 14.021581 100.814735 17,675 16 238 -960
2019-06-25 04:39:47 GMT 14.018005 100.814095 17,725 16 238 -960
2019-06-25 04:39:40 GMT 14.009896 100.811363 17,825 16 239 -960
2019-06-25 04:39:36 GMT 14.005737 100.810638 17,900 16 239 -960
2019-06-25 04:39:29 GMT 13.998871 100.808601 18,000 16 239 -960
2019-06-25 04:39:26 GMT 13.995392 100.807182 18,050 16 239 -960
2019-06-25 04:39:23 GMT 13.992004 100.806572 18,100 16 239 -896
2019-06-25 04:39:19 GMT 13.987318 100.804573 18,150 16 239 -960
2019-06-25 04:39:15 GMT 13.983810 100.803917 18,300 16 239 -960
2019-06-25 04:39:10 GMT 13.977589 100.801781 18,300 16 240 -1024
2019-06-25 04:39:07 GMT 13.975587 100.801147 18,325 16 240 -960
2019-06-25 04:39:04 GMT 13.972142 100.800430 18,375 15 240 -960
2019-06-25 04:38:57 GMT 13.964539 100.798279 18,450 15 240 -960
2019-06-25 04:38:54 GMT 13.959045 100.796906 18,550 15 241 -1024
2019-06-25 04:38:46 GMT 13.952866 100.794968 18,650 15 241 -960
2019-06-25 04:38:42 GMT 13.947327 100.792885 18,725 15 242 -1024
2019-06-25 04:38:36 GMT 13.940580 100.791512 18,825 16 242 -960
2019-06-25 04:38:31 GMT 13.935699 100.790039 18,875 16 242 -960
2019-06-25 04:38:25 GMT 13.929520 100.787956 18,975 16 242 -960
2019-06-25 04:38:20 GMT 13.924054 100.786598 19,050 16 242 -960
2019-06-25 04:38:14 GMT 13.917068 100.784599 19,150 15 243 -960
2019-06-25 04:38:09 GMT 13.911764 100.782555 19,225 15 243 -1024
2019-06-25 04:38:06 GMT 13.908971 100.781921 19,250 15 243 -1024
2019-06-25 04:38:03 GMT 13.906082 100.781090 19,300 16 243 -1024
2019-06-25 04:37:59 GMT 13.900684 100.779800 19,375 16 243 -1024
2019-06-25 04:37:56 GMT 13.897888 100.778343 19,425 16 243 -1024
2019-06-25 04:37:52 GMT 13.894493 100.777779 19,475 16 243 -1088
2019-06-25 04:37:48 GMT 13.888916 100.776260 19,550 16 242 -1088
2019-06-25 04:37:44 GMT 13.885648 100.774986 19,625 15 241 -1088
2019-06-25 04:37:41 GMT 13.882050 100.773659 19,675 14 241 -1024
2019-06-25 04:37:34 GMT 13.874496 100.772285 19,775 13 241 -1088
2019-06-25 04:37:31 GMT 13.870472 100.770935 19,850 13 239 -1024
2019-06-25 04:37:26 GMT 13.865570 100.769493 19,925 13 237 -640
2019-06-25 04:37:23 GMT 13.862977 100.769447 19,925 13 238 -832
2019-06-25 04:37:20 GMT 13.858704 100.768021 19,975 13 237 -640
2019-06-25 04:37:15 GMT 13.853943 100.766747 20,000 12 235 -128
2019-06-25 04:37:09 GMT 13.847122 100.765274 20,000 9 234 0
2019-06-25 04:37:03 GMT 13.840353 100.764526 20,000 1 235 64
2019-06-25 04:37:00 GMT 13.836861 100.764671 20,000 0 235 0
2019-06-25 04:36:56 GMT 13.832748 100.764709 20,000 0 235 -64
2019-06-25 04:36:50 GMT 13.827272 100.764580 20,000 0 235 0
2019-06-25 04:36:47 GMT 13.822357 100.764664 20,000 0 235 0
2019-06-25 04:36:42 GMT 13.817635 100.764671 20,000 0 236 -64
2019-06-25 04:36:38 GMT 13.814209 100.765228 20,000 0 236 0
2019-06-25 04:36:34 GMT 13.809349 100.765305 20,000 0 236 0
2019-06-25 04:36:31 GMT 13.805969 100.765320 20,000 0 236 64
2019-06-25 04:36:28 GMT 13.801854 100.765350 20,000 0 236 0
2019-06-25 04:36:25 GMT 13.799061 100.765396 20,000 0 236 0
2019-06-25 04:36:21 GMT 13.794359 100.765251 20,000 0 236 0
2019-06-25 04:36:17 GMT 13.790726 100.765274 20,000 0 236 -64
2019-06-25 04:36:13 GMT 13.785965 100.765320 20,000 0 236 -64
2019-06-25 04:36:10 GMT 13.783264 100.765320 20,000 0 235 64
2019-06-25 04:36:06 GMT 13.778366 100.765373 20,000 0 235 0
2019-06-25 04:36:03 GMT 13.774246 100.765373 20,000 0 235 0
2019-06-25 04:35:59 GMT 13.771545 100.765228 20,000 0 235 0
2019-06-25 04:35:54 GMT 13.766006 100.765274 20,000 0 235 0
2019-06-25 04:35:51 GMT 13.762657 100.765305 20,000 0 235 0
2019-06-25 04:35:48 GMT 13.760004 100.765305 20,000 0 235 0
2019-06-25 04:35:45 GMT 13.754379 100.765373 20,000 0 235 0
2019-06-25 04:35:41 GMT 13.750214 100.765373 20,000 0 235 -64
2019-06-25 04:35:38 GMT 13.746826 100.765228 20,000 0 235 -64
2019-06-25 04:35:34 GMT 13.743439 100.765228 20,000 0 235 0
2019-06-25 04:35:31 GMT 13.738632 100.765228 20,000 0 235 64
2019-06-25 04:35:26 GMT 13.735199 100.765373 20,000 0 235 0
2019-06-25 04:35:22 GMT 13.731839 100.765350 20,000 0 235 -128
2019-06-25 04:35:19 GMT 13.728348 100.765305 20,000 3 234 128
2019-06-25 04:35:16 GMT 13.723553 100.765396 20,000 4 234 -128
2019-06-25 04:35:12 GMT 13.720047 100.764610 20,000 4 234 -128
2019-06-25 04:35:09 GMT 13.716614 100.764565 20,000 0 234 64
2019-06-25 04:35:04 GMT 13.711166 100.764664 20,000 351 233 0
2019-06-25 04:34:59 GMT 13.704420 100.766701 20,000 338 232 0
2019-06-25 04:34:55 GMT 13.702881 100.767883 20,000 334 232 -64
2019-06-25 04:34:51 GMT 13.696832 100.770653 20,000 334 232 0
2019-06-25 04:34:46 GMT 13.693341 100.772820 20,000 334 232 64
2019-06-25 04:34:43 GMT 13.689835 100.774223 20,000 334 232 64
2019-06-25 04:34:40 GMT 13.687088 100.775551 20,000 334 232 0
2019-06-25 04:34:35 GMT 13.682960 100.777634 20,000 334 232 0
2019-06-25 04:34:32 GMT 13.679701 100.779564 20,000 334 232 0
2019-06-25 04:34:28 GMT 13.676743 100.781044 20,000 334 232 0
2019-06-25 04:34:25 GMT 13.672765 100.782982 20,000 334 232 0
2019-06-25 04:34:18 GMT 13.666534 100.786583 20,000 334 232 -64
2019-06-25 04:34:14 GMT 13.663221 100.787849 20,000 334 231 0
2019-06-25 04:34:11 GMT 13.658890 100.789993 20,000 334 231 0
2019-06-25 04:34:08 GMT 13.655587 100.791992 20,000 334 231 0
2019-06-25 04:34:04 GMT 13.652235 100.794113 20,000 334 231 0
2019-06-25 04:34:00 GMT 13.648544 100.795441 20,000 334 231 0
2019-06-25 04:33:57 GMT 13.645798 100.796814 20,000 334 232 64
2019-06-25 04:33:52 GMT 13.641901 100.798935 20,000 334 232 0
2019-06-25 04:33:49 GMT 13.638290 100.800888 20,000 334 232 0
2019-06-25 04:33:46 GMT 13.635544 100.802307 20,000 334 232 0
2019-06-25 04:33:42 GMT 13.632065 100.804390 20,000 334 233 0
2019-06-25 04:33:38 GMT 13.628036 100.805862 20,000 334 233 0
2019-06-25 04:33:34 GMT 13.623184 100.808510 20,000 334 232 0
2019-06-25 04:33:31 GMT 13.621262 100.809174 20,000 334 232 0
2019-06-25 04:33:27 GMT 13.617691 100.811256 20,000 334 232 0
2019-06-25 04:33:23 GMT 13.613783 100.813194 20,000 335 233 0
2019-06-25 04:33:20 GMT 13.610870 100.814575 20,000 335 232 0
2019-06-25 04:33:17 GMT 13.606893 100.816666 20,000 335 233 64
2019-06-25 04:33:14 GMT 13.603317 100.818214 20,000 335 233 0
2019-06-25 04:33:09 GMT 13.599910 100.819511 20,000 335 233 0
2019-06-25 04:33:06 GMT 13.596466 100.821579 20,000 335 233 0
2019-06-25 04:33:02 GMT 13.593109 100.822998 20,000 336 233 0
2019-06-25 04:32:58 GMT 13.589064 100.824905 20,000 336 234 0
2019-06-25 04:32:55 GMT 13.585479 100.826927 20,000 336 234 0
2019-06-25 04:32:51 GMT 13.582764 100.827827 20,000 336 234 0
2019-06-25 04:32:48 GMT 13.578598 100.829819 20,000 337 234 -64
2019-06-25 04:32:45 GMT 13.575806 100.831192 20,000 337 234 0
2019-06-25 04:32:42 GMT 13.571686 100.833229 20,000 337 234 0
2019-06-25 04:32:38 GMT 13.569626 100.833939 20,000 337 234 -64
2019-06-25 04:32:34 GMT 13.564774 100.836021 20,000 338 234 0
2019-06-25 04:32:29 GMT 13.559503 100.838058 20,000 338 235 0
2019-06-25 04:32:26 GMT 13.553265 100.840805 20,000 339 235 0
2019-06-25 04:32:23 GMT 13.553265 100.840805 20,000 339 235 0
2019-06-25 04:32:18 GMT 13.549122 100.842880 20,000 339 236 0
2019-06-25 04:32:14 GMT 13.545072 100.844177 20,000 339 237 64
2019-06-25 04:32:11 GMT 13.542160 100.844925 20,000 339 238 0
2019-06-25 04:32:08 GMT 13.536879 100.847549 20,000 339 238 0
2019-06-25 04:32:05 GMT 13.534784 100.848228 20,000 336 239 -64
2019-06-25 04:32:02 GMT 13.531386 100.849625 20,000 334 239 0
2019-06-25 04:31:57 GMT 13.527008 100.852455 20,000 329 239 64
2019-06-25 04:31:52 GMT 13.523751 100.855118 20,000 324 240 0
2019-06-25 04:31:48 GMT 13.518814 100.858612 20,000 318 241 0
2019-06-25 04:31:40 GMT 13.512726 100.865479 20,000 310 242 0
2019-06-25 04:31:36 GMT 13.510623 100.867409 20,000 306 243 0
2019-06-25 04:31:31 GMT 13.507271 100.872902 20,000 301 243 0
2019-06-25 04:31:26 GMT 13.503662 100.879166 20,000 295 243 0
2019-06-25 04:31:20 GMT 13.501732 100.884605 20,000 288 245 -64
2019-06-25 04:31:16 GMT 13.500242 100.889381 20,000 286 245 0
2019-06-25 04:31:11 GMT 13.498901 100.894981 20,000 281 244 0
2019-06-25 04:31:08 GMT 13.497482 100.901848 20,000 275 242 0
2019-06-25 04:31:05 GMT 13.497574 100.903175 20,000 271 242 0
2019-06-25 04:30:58 GMT 13.497402 100.909180 20,000 268 241 0
2019-06-25 04:30:55 GMT 13.497482 100.913498 20,000 248 235 0
2019-06-25 04:30:47 GMT 13.498892 100.921661 20,000 257 237 0
2019-06-25 04:30:44 GMT 13.500229 100.925903 20,000 254 236 0
2019-06-25 04:30:36 GMT 13.502942 100.933372 20,000 248 235 0
2019-06-25 04:30:31 GMT 13.504990 100.939018 20,000 236 231 0
2019-06-25 04:30:27 GMT 13.507597 100.942909 20,000 236 231 0
2019-06-25 04:30:23 GMT 13.510437 100.946548 20,000 231 230 0
2019-06-25 04:30:16 GMT 13.514603 100.951950 20,000 226 228 0
2019-06-25 04:30:12 GMT 13.518036 100.954697 20,000 220 227 0
2019-06-25 04:30:05 GMT 13.523984 100.959488 20,000 213 224 0
2019-06-25 04:30:01 GMT 13.527512 100.961700 20,000 208 224 0
2019-06-25 04:29:55 GMT 13.533737 100.964447 20,000 201 222 0
2019-06-25 04:29:50 GMT 13.537857 100.965729 20,000 196 220 -64
2019-06-25 04:29:44 GMT 13.543955 100.967148 20,000 188 218 0
2019-06-25 04:29:40 GMT 13.548889 100.967812 20,000 184 217 -64
2019-06-25 04:29:32 GMT 13.556431 100.967827 20,000 174 214 0
2019-06-25 04:29:29 GMT 13.559235 100.967148 20,000 170 213 0
2019-06-25 04:29:20 GMT 13.567429 100.965256 20,000 158 208 -64
2019-06-25 04:29:17 GMT 13.569465 100.964455 20,025 155 207 -128
2019-06-25 04:29:10 GMT 13.575027 100.961090 20,025 142 199 -64
2019-06-25 04:29:07 GMT 13.578310 100.959007 20,025 139 197 128
2019-06-25 04:28:58 GMT 13.584000 100.952751 19,900 124 194 1088
2019-06-25 04:28:55 GMT 13.585293 100.950768 19,900 124 194 1088
2019-06-25 04:28:49 GMT 13.588120 100.946030 19,775 116 195 1216
2019-06-25 04:28:46 GMT 13.589447 100.942474 19,700 115 196 1216
2019-06-25 04:28:39 GMT 13.592229 100.936501 19,575 115 195 1216
2019-06-25 04:28:35 GMT 13.594278 100.932983 19,500 115 195 1152
2019-06-25 04:28:28 GMT 13.596359 100.927513 19,375 115 195 1152
2019-06-25 04:28:24 GMT 13.597687 100.924767 19,325 115 194 1088
2019-06-25 04:28:17 GMT 13.601120 100.918518 19,200 115 193 1088
2019-06-25 04:28:12 GMT 13.602517 100.914436 19,125 115 192 1088
2019-06-25 04:28:06 GMT 13.605286 100.909569 19,025 115 191 1152
2019-06-25 04:28:03 GMT 13.606521 100.906868 18,950 115 191 1216
2019-06-25 04:27:53 GMT 13.610046 100.899246 18,750 115 190 1408
2019-06-25 04:27:44 GMT 13.614258 100.888969 18,525 115 189 1344
2019-06-25 04:27:41 GMT 13.614258 100.888969 18,500 115 189 1344
2019-06-25 04:27:31 GMT 13.618286 100.880730 18,300 115 187 1280
2019-06-25 04:27:23 GMT 13.621078 100.873810 18,125 115 186 1408
2019-06-25 04:27:19 GMT 13.622498 100.871964 18,075 114 186 1472
2019-06-25 04:27:09 GMT 13.626572 100.862877 17,775 114 186 1664
2019-06-25 04:27:01 GMT 13.629227 100.856766 17,550 114 186 1664
2019-06-25 04:26:58 GMT 13.629983 100.854736 17,525 114 186 1664
2019-06-25 04:26:49 GMT 13.633438 100.847054 17,275 115 187 1792
2019-06-25 04:26:46 GMT 13.633987 100.845779 17,225 115 187 1792
2019-06-25 04:26:39 GMT 13.637558 100.838821 16,900 115 190 2112
2019-06-25 04:26:36 GMT 13.638199 100.836876 16,875 115 190 2176
2019-06-25 04:26:28 GMT 13.641668 100.829384 16,525 115 193 1920
2019-06-25 04:26:25 GMT 13.642366 100.827896 16,525 115 193 1920
2019-06-25 04:26:19 GMT 13.644379 100.823143 16,375 115 195 1600
2019-06-25 04:26:16 GMT 13.645718 100.821053 16,325 115 195 1600
2019-06-25 04:26:13 GMT 13.646463 100.818352 16,250 115 195 1664
2019-06-25 04:26:06 GMT 13.649826 100.812202 16,075 115 194 1536
2019-06-25 04:26:03 GMT 13.651118 100.809341 16,000 115 194 1472
2019-06-25 04:25:58 GMT 13.652664 100.805290 15,875 115 193 1600
2019-06-25 04:25:55 GMT 13.653992 100.802498 15,775 115 192 1664
2019-06-25 04:25:51 GMT 13.655308 100.800430 15,700 115 193 1728
2019-06-25 04:25:48 GMT 13.656797 100.797104 15,600 115 193 1792
2019-06-25 04:25:45 GMT 13.658066 100.794212 15,475 115 194 1920
2019-06-25 04:25:41 GMT 13.659451 100.791611 15,400 116 194 1920
2019-06-25 04:25:37 GMT 13.661499 100.787346 15,275 116 197 1792
2019-06-25 04:25:33 GMT 13.662872 100.783981 15,150 116 198 1600
2019-06-25 04:25:30 GMT 13.663651 100.782463 15,125 116 198 1536
2019-06-25 04:25:22 GMT 13.668457 100.775742 15,000 135 195 320
2019-06-25 04:25:19 GMT 13.669646 100.773735 15,000 141 195 128
2019-06-25 04:25:11 GMT 13.675873 100.770866 15,000 160 193 0
2019-06-25 04:25:06 GMT 13.680539 100.769493 15,000 181 193 128
2019-06-25 04:25:02 GMT 13.684799 100.770103 15,000 184 193 0
2019-06-25 04:24:55 GMT 13.691071 100.770058 15,000 184 193 0
2019-06-25 04:24:50 GMT 13.694504 100.770767 15,000 184 193 0
2019-06-25 04:24:46 GMT 13.698624 100.770866 15,000 184 193 0
2019-06-25 04:24:43 GMT 13.700510 100.770844 15,000 184 193 0
2019-06-25 04:24:40 GMT 13.704606 100.771423 15,000 184 193 64
2019-06-25 04:24:35 GMT 13.708145 100.771477 15,000 184 193 -64
2019-06-25 04:24:32 GMT 13.710297 100.771477 15,000 184 193 -64
2019-06-25 04:24:29 GMT 13.714336 100.771568 15,000 184 193 0
2019-06-25 04:24:24 GMT 13.717850 100.772095 15,000 184 194 0
2019-06-25 04:24:20 GMT 13.722702 100.772240 15,000 184 193 0
2019-06-25 04:24:17 GMT 13.723879 100.772194 15,000 184 194 0
2019-06-25 04:24:13 GMT 13.728022 100.772766 15,000 184 194 0
2019-06-25 04:24:07 GMT 13.733643 100.772804 15,000 184 193 0
2019-06-25 04:24:03 GMT 13.737762 100.773560 15,000 184 193 0
2019-06-25 04:23:58 GMT 13.742360 100.773491 15,000 184 192 0
2019-06-25 04:23:55 GMT 13.743803 100.773590 15,000 184 193 0
2019-06-25 04:23:51 GMT 13.747202 100.774170 15,000 184 193 0
2019-06-25 04:23:47 GMT 13.752043 100.774307 15,000 184 192 0
2019-06-25 04:23:41 GMT 13.756943 100.774223 15,000 184 192 0
2019-06-25 04:23:37 GMT 13.761063 100.774887 15,000 184 193 0
2019-06-25 04:23:34 GMT 13.763718 100.774841 15,000 184 193 -64
2019-06-25 04:23:30 GMT 13.766602 100.774887 15,000 184 193 0
2019-06-25 04:23:26 GMT 13.770721 100.775642 15,000 184 193 0
2019-06-25 04:23:23 GMT 13.773317 100.775658 15,000 184 193 0
2019-06-25 04:23:19 GMT 13.776810 100.775696 15,000 184 193 0
2019-06-25 04:23:15 GMT 13.780197 100.776260 15,000 184 193 0
2019-06-25 04:23:12 GMT 13.786399 100.776283 15,000 184 193 0
2019-06-25 04:23:08 GMT 13.786399 100.776283 15,000 184 193 0
2019-06-25 04:23:04 GMT 13.789902 100.776306 15,000 184 193 0
2019-06-25 04:23:01 GMT 13.793289 100.777023 15,000 184 193 0
2019-06-25 04:22:57 GMT 13.796035 100.777061 15,000 184 193 0
2019-06-25 04:22:54 GMT 13.799480 100.776917 15,000 184 193 0
2019-06-25 04:22:49 GMT 13.803680 100.777733 15,000 184 193 0
2019-06-25 04:22:46 GMT 13.805578 100.777687 15,000 184 193 0
2019-06-25 04:22:43 GMT 13.808977 100.777733 15,000 184 193 0
2019-06-25 04:22:39 GMT 13.812421 100.778313 15,000 184 194 64
2019-06-25 04:22:36 GMT 13.815261 100.778313 15,000 184 194 0
2019-06-25 04:22:31 GMT 13.818787 100.778397 15,000 184 194 0
2019-06-25 04:22:27 GMT 13.823456 100.779007 15,000 184 194 -64
2019-06-25 04:22:22 GMT 13.829041 100.779007 15,000 184 194 0
2019-06-25 04:22:17 GMT 13.832392 100.779083 15,000 184 193 0
2019-06-25 04:22:11 GMT 13.838562 100.779816 15,000 184 193 0
2019-06-25 04:22:06 GMT 13.842682 100.779716 15,000 184 193 0
2019-06-25 04:22:00 GMT 13.847534 100.780334 15,000 184 193 0
2019-06-25 04:21:55 GMT 13.852270 100.780479 15,000 184 192 0
2019-06-25 04:21:52 GMT 13.854492 100.780426 15,000 184 192 0
2019-06-25 04:21:48 GMT 13.857810 100.781151 15,000 184 192 0
2019-06-25 04:21:44 GMT 13.862000 100.781090 15,000 184 192 -64
2019-06-25 04:21:41 GMT 13.864655 100.781044 15,000 184 192 0
2019-06-25 04:21:38 GMT 13.867446 100.781731 15,000 184 192 0
2019-06-25 04:21:33 GMT 13.871543 100.781830 15,000 184 192 0
2019-06-25 04:21:28 GMT 13.876465 100.781799 15,000 184 191 0
2019-06-25 04:21:25 GMT 13.879038 100.782501 15,000 184 191 64
2019-06-25 04:21:21 GMT 13.881831 100.782455 15,000 184 191 64
2019-06-25 04:21:18 GMT 13.885229 100.782555 15,000 184 191 0
2019-06-25 04:21:11 GMT 13.891525 100.783127 15,000 184 191 0
2019-06-25 04:21:06 GMT 13.896262 100.783127 15,000 185 191 -64
2019-06-25 04:21:03 GMT 13.898483 100.783791 15,000 185 191 -64
2019-06-25 04:21:00 GMT 13.901138 100.783836 15,000 185 191 0
2019-06-25 04:20:55 GMT 13.905899 100.783890 15,000 185 190 0
2019-06-25 04:20:52 GMT 13.908005 100.784599 15,000 185 190 64
2019-06-25 04:20:49 GMT 13.910600 100.784477 15,000 186 190 64
2019-06-25 04:20:46 GMT 13.914091 100.785156 15,000 186 190 64
2019-06-25 04:20:42 GMT 13.916931 100.785248 15,000 187 190 -64
2019-06-25 04:20:38 GMT 13.920236 100.785973 15,000 192 190 0
2019-06-25 04:20:34 GMT 13.926453 100.787292 15,000 201 190 0
2019-06-25 04:20:31 GMT 13.926453 100.787292 15,000 201 190 0
2019-06-25 04:20:27 GMT 13.929919 100.789345 15,000 211 191 0
2019-06-25 04:20:24 GMT 13.932037 100.790703 15,000 217 192 0
2019-06-25 04:20:21 GMT 13.933456 100.791985 15,000 219 192 0
2019-06-25 04:20:14 GMT 13.938857 100.797485 15,000 234 194 0
2019-06-25 04:20:10 GMT 13.940952 100.800186 15,000 238 194 64
2019-06-25 04:20:05 GMT 13.942474 100.803635 15,000 242 195 64
2019-06-25 04:20:02 GMT 13.943792 100.805725 15,000 242 195 0
2019-06-25 04:19:59 GMT 13.945084 100.808418 15,000 242 195 0
2019-06-25 04:19:55 GMT 13.947144 100.812538 15,000 242 195 -64
2019-06-25 04:19:50 GMT 13.949295 100.816795 15,000 242 195 0
2019-06-25 04:19:42 GMT 13.952637 100.822784 15,000 242 195 0
2019-06-25 04:19:39 GMT 13.954033 100.824905 15,000 242 195 0
2019-06-25 04:19:33 GMT 13.956894 100.830338 15,000 243 194 0
2019-06-25 04:19:29 GMT 13.958083 100.833771 15,000 243 194 0
2019-06-25 04:19:22 GMT 13.960970 100.839363 15,000 243 195 0
2019-06-25 04:19:18 GMT 13.962936 100.842041 15,000 243 194 64
2019-06-25 04:19:10 GMT 13.966415 100.850327 15,000 245 195 -64
2019-06-25 04:18:57 GMT 13.970490 100.860741 15,000 264 198 -64
2019-06-25 04:18:49 GMT 13.969954 100.868805 15,000 283 203 128
2019-06-25 04:18:46 GMT 13.969254 100.870972 15,000 284 204 0
2019-06-25 04:18:38 GMT 13.967194 100.879211 15,000 292 206 64
2019-06-25 04:18:35 GMT 13.966461 100.881203 15,000 297 207 0
2019-06-25 04:18:27 GMT 13.961761 100.887306 15,000 320 212 -64
2019-06-25 04:18:24 GMT 13.959806 100.889473 15,000 326 213 -64
2019-06-25 04:18:16 GMT 13.952087 100.892990 15,000 347 217 -128
2019-06-25 04:18:11 GMT 13.948013 100.893745 15,000 353 217 0
2019-06-25 04:18:03 GMT 13.939137 100.892990 15,000 8 219 -64
2019-06-25 04:17:54 GMT 13.930206 100.891617 15,000 8 219 64
2019-06-25 04:17:51 GMT 13.928290 100.890968 15,000 8 219 64
2019-06-25 04:17:44 GMT 13.919952 100.889679 15,000 8 219 -64
2019-06-25 04:17:41 GMT 13.917847 100.889580 15,000 8 219 -64
2019-06-25 04:17:33 GMT 13.908924 100.888222 15,000 8 219 0
2019-06-25 04:17:29 GMT 13.906723 100.887497 15,000 8 219 64
2019-06-25 04:17:23 GMT 13.899307 100.886124 15,000 8 220 64
2019-06-25 04:17:20 GMT 13.895936 100.885574 15,000 8 220 64
2019-06-25 04:17:12 GMT 13.887045 100.884750 15,000 8 222 -64
2019-06-25 04:17:09 GMT 13.884155 100.884186 15,000 8 222 -128
2019-06-25 04:17:01 GMT 13.876556 100.882812 15,000 8 222 0
2019-06-25 04:16:58 GMT 13.873810 100.882713 15,000 8 222 64
2019-06-25 04:16:51 GMT 13.865662 100.881340 15,000 8 223 64
2019-06-25 04:16:46 GMT 13.862279 100.880653 15,000 8 223 64
2019-06-25 04:16:40 GMT 13.854830 100.879311 15,000 8 224 64
2019-06-25 04:16:36 GMT 13.851292 100.879257 15,000 8 224 0
2019-06-25 04:16:29 GMT 13.843735 100.877838 15,000 8 225 0
2019-06-25 04:16:25 GMT 13.840210 100.877319 15,000 8 225 0
2019-06-25 04:16:18 GMT 13.831924 100.875847 15,000 8 226 -64
2019-06-25 04:16:15 GMT 13.829178 100.875237 15,000 8 226 64
2019-06-25 04:16:08 GMT 13.821685 100.874443 15,000 8 226 0
2019-06-25 04:16:04 GMT 13.817596 100.873909 15,000 8 226 0
2019-06-25 04:15:58 GMT 13.811490 100.872414 15,000 8 226 0
2019-06-25 04:15:53 GMT 13.806649 100.871788 15,000 8 226 0
2019-06-25 04:15:47 GMT 13.800339 100.871017 15,000 8 225 64
2019-06-25 04:15:44 GMT 13.796219 100.870354 15,000 8 225 64
2019-06-25 04:15:41 GMT 13.795104 100.870392 15,000 8 225 0
2019-06-25 04:15:37 GMT 13.789444 100.868980 15,000 8 224 -128
2019-06-25 04:15:31 GMT 13.783997 100.868370 15,025 9 222 -192
2019-06-25 04:15:25 GMT 13.776436 100.867020 15,000 8 217 384
2019-06-25 04:15:21 GMT 13.772964 100.866333 14,975 8 215 640
2019-06-25 04:15:16 GMT 13.768290 100.865524 14,850 8 212 1152
2019-06-25 04:15:10 GMT 13.762527 100.864960 14,775 8 211 1280
2019-06-25 04:15:04 GMT 13.756605 100.864182 14,650 9 210 1408
2019-06-25 04:15:01 GMT 13.753601 100.863487 14,550 8 210 1344
2019-06-25 04:14:54 GMT 13.746872 100.862114 14,425 9 209 1344
2019-06-25 04:14:50 GMT 13.742706 100.861504 14,350 9 209 1344
2019-06-25 04:14:47 GMT 13.741333 100.861404 14,300 9 209 1344
2019-06-25 04:14:42 GMT 13.736588 100.860802 14,200 8 208 1408
2019-06-25 04:14:36 GMT 13.730489 100.860085 14,050 8 208 1536
2019-06-25 04:14:32 GMT 13.726253 100.859360 13,950 9 209 1664
2019-06-25 04:14:28 GMT 13.722203 100.858109 13,825 9 209 1664
2019-06-25 04:14:22 GMT 13.715973 100.857285 13,675 9 210 1600
2019-06-25 04:14:18 GMT 13.712448 100.856674 13,550 9 211 1536
2019-06-25 04:14:10 GMT 13.704346 100.855202 13,375 10 212 1472
2019-06-25 04:14:07 GMT 13.701674 100.854538 13,300 10 211 1408
2019-06-25 04:14:04 GMT 13.699448 100.854637 13,250 10 211 1408
2019-06-25 04:13:59 GMT 13.693314 100.853210 13,125 10 211 1600
2019-06-25 04:13:56 GMT 13.691208 100.853165 13,075 10 211 1536
2019-06-25 04:13:53 GMT 13.688507 100.852501 13,000 10 211 1472
2019-06-25 04:13:50 GMT 13.685101 100.851791 12,925 10 210 1472
2019-06-25 04:13:43 GMT 13.678116 100.850563 12,750 11 209 1408
2019-06-25 04:13:39 GMT 13.674766 100.849815 12,675 12 208 1536
2019-06-25 04:13:35 GMT 13.671249 100.848480 12,575 13 209 1600
2019-06-25 04:13:32 GMT 13.667908 100.847717 12,500 17 209 1472
2019-06-25 04:13:21 GMT 13.658985 100.842445 12,275 45 207 1536
2019-06-25 04:13:17 GMT 13.656983 100.840279 12,175 47 208 1664
2019-06-25 04:13:13 GMT 13.654144 100.836952 12,075 47 208 1664
2019-06-25 04:13:07 GMT 13.650094 100.832039 11,900 47 209 1600
2019-06-25 04:13:03 GMT 13.646556 100.828667 11,800 47 208 1536
2019-06-25 04:12:59 GMT 13.643188 100.824371 11,700 47 209 1536
2019-06-25 04:12:56 GMT 13.643188 100.824371 11,600 47 208 1536
2019-06-25 04:12:52 GMT 13.639664 100.821014 11,550 47 208 1664
2019-06-25 04:12:47 GMT 13.637664 100.818306 11,400 47 208 1600
2019-06-25 04:12:44 GMT 13.635544 100.816231 11,375 47 208 1536
2019-06-25 04:12:41 GMT 13.632843 100.813438 11,275 47 208 1536
2019-06-25 04:12:35 GMT 13.628773 100.808670 11,125 47 207 1536
2019-06-25 04:12:30 GMT 13.625980 100.805298 11,025 48 206 1536
2019-06-25 04:12:27 GMT 13.623184 100.802399 10,925 49 206 1536
2019-06-25 04:12:24 GMT 13.621837 100.800575 10,850 51 206 1600
2019-06-25 04:12:19 GMT 13.619659 100.797714 10,775 54 205 1600
2019-06-25 04:12:16 GMT 13.617693 100.794312 10,675 64 204 1536
2019-06-25 04:12:09 GMT 13.615552 100.788239 10,500 86 201 1728
2019-06-25 04:12:05 GMT 13.615505 100.783325 10,375 96 200 1728
2019-06-25 04:11:57 GMT 13.616949 100.777878 10,225 117 195 1344
2019-06-25 04:11:54 GMT 13.619019 100.774323 10,150 128 192 896
2019-06-25 04:11:46 GMT 13.623001 100.770149 10,100 150 185 320
2019-06-25 04:11:43 GMT 13.627004 100.768768 10,100 164 182 64
2019-06-25 04:11:40 GMT 13.628586 100.768021 10,100 183 177 0
2019-06-25 04:11:37 GMT 13.631927 100.768021 10,100 179 180 64
2019-06-25 04:11:33 GMT 13.634079 100.768021 10,075 183 179 0
2019-06-25 04:11:30 GMT 13.636734 100.767975 10,100 183 179 0
2019-06-25 04:11:24 GMT 13.642785 100.768097 10,100 183 178 0
2019-06-25 04:11:20 GMT 13.645660 100.768730 10,100 183 177 0
2019-06-25 04:11:15 GMT 13.649780 100.768784 10,100 183 176 -64
2019-06-25 04:11:12 GMT 13.651245 100.768829 10,100 183 175 -64
2019-06-25 04:11:08 GMT 13.654678 100.768829 10,100 183 175 0
2019-06-25 04:11:02 GMT 13.660172 100.769440 10,100 183 174 0
2019-06-25 04:10:57 GMT 13.663513 100.769440 10,100 183 173 -64
2019-06-25 04:10:51 GMT 13.668296 100.769493 10,100 183 171 -64
2019-06-25 04:10:47 GMT 13.671844 100.769493 10,100 183 170 0
2019-06-25 04:10:41 GMT 13.676489 100.770020 10,100 183 168 0
2019-06-25 04:10:37 GMT 13.680130 100.770058 10,100 183 166 0
2019-06-25 04:10:32 GMT 13.683517 100.770058 10,100 183 165 0
2019-06-25 04:10:26 GMT 13.688232 100.770813 10,075 183 163 192
2019-06-25 04:10:22 GMT 13.691665 100.770798 10,050 183 163 256
2019-06-25 04:10:14 GMT 13.696564 100.770813 10,050 183 162 -320
2019-06-25 04:10:09 GMT 13.700638 100.770866 10,100 184 159 0
2019-06-25 04:10:05 GMT 13.704758 100.771431 10,100 184 158 64
2019-06-25 04:09:58 GMT 13.708237 100.771477 10,075 184 159 64
2019-06-25 04:09:54 GMT 13.712265 100.771523 10,075 184 159 0
2019-06-25 04:09:49 GMT 13.715732 100.772141 10,075 184 160 64
2019-06-25 04:09:43 GMT 13.720596 100.772240 10,075 184 162 0
2019-06-25 04:09:37 GMT 13.723926 100.772820 10,075 184 163 0
2019-06-25 04:09:32 GMT 13.728720 100.772911 10,075 184 164 -64
2019-06-25 04:09:27 GMT 13.732165 100.772865 10,075 184 164 0
2019-06-25 04:09:22 GMT 13.736984 100.773468 10,075 184 164 0
2019-06-25 04:09:15 GMT 13.741150 100.773560 10,100 184 165 -64
2019-06-25 04:09:11 GMT 13.744629 100.774178 10,100 184 166 0
2019-06-25 04:09:07 GMT 13.747947 100.774216 10,100 184 166 0
2019-06-25 04:08:59 GMT 13.753464 100.774178 10,075 184 167 0
2019-06-25 04:08:55 GMT 13.757675 100.774986 10,075 184 168 0
2019-06-25 04:08:49 GMT 13.761749 100.774887 10,075 184 169 64
2019-06-25 04:08:44 GMT 13.765823 100.774986 10,075 184 170 64
2019-06-25 04:08:38 GMT 13.769943 100.775642 10,075 184 172 0
2019-06-25 04:08:33 GMT 13.774714 100.775566 10,075 184 174 -64
2019-06-25 04:08:28 GMT 13.778764 100.776337 10,075 184 175 0
2019-06-25 04:08:25 GMT 13.781557 100.776337 10,075 184 176 64
2019-06-25 04:08:17 GMT 13.787795 100.776917 10,075 184 179 64
2019-06-25 04:08:11 GMT 13.792603 100.777023 10,075 184 182 0
2019-06-25 04:08:07 GMT 13.796733 100.776917 10,100 184 184 -320
2019-06-25 04:08:04 GMT 13.798874 100.777023 10,100 184 184 -384
2019-06-25 04:07:59 GMT 13.801528 100.777733 10,125 184 185 -320
2019-06-25 04:07:56 GMT 13.805671 100.777634 10,125 184 187 256
2019-06-25 04:07:53 GMT 13.807709 100.777733 10,100 184 189 192
2019-06-25 04:07:50 GMT 13.811118 100.778313 10,075 184 190 0
2019-06-25 04:07:44 GMT 13.815994 100.778252 10,075 184 190 0
2019-06-25 04:07:41 GMT 13.818008 100.778358 10,075 184 190 0
2019-06-25 04:07:38 GMT 13.820755 100.778397 10,075 184 190 -64
2019-06-25 04:07:34 GMT 13.824966 100.779007 10,100 184 190 0
2019-06-25 04:07:31 GMT 13.826806 100.779129 10,100 184 190 0
2019-06-25 04:07:28 GMT 13.829646 100.778984 10,100 184 190 0
2019-06-25 04:07:23 GMT 13.835220 100.779716 10,100 184 190 0
2019-06-25 04:07:20 GMT 13.836535 100.779800 10,100 184 189 0
2019-06-25 04:07:17 GMT 13.839249 100.779671 10,100 185 189 0
2019-06-25 04:07:11 GMT 13.844879 100.780426 10,100 185 189 0
2019-06-25 04:07:07 GMT 13.848825 100.780434 10,100 185 189 64
2019-06-25 04:07:03 GMT 13.852317 100.781105 10,075 186 188 64
2019-06-25 04:06:59 GMT 13.855110 100.781151 10,075 186 188 64
2019-06-25 04:06:55 GMT 13.861954 100.782463 10,075 194 188 0
2019-06-25 04:06:51 GMT 13.861954 100.782463 10,075 194 188 0
2019-06-25 04:06:48 GMT 13.864746 100.783081 10,075 198 187 0
2019-06-25 04:06:45 GMT 13.868088 100.784454 10,075 204 186 0
2019-06-25 04:06:42 GMT 13.870193 100.785202 10,075 209 186 0
2019-06-25 04:06:38 GMT 13.872391 100.786537 10,075 212 185 0
2019-06-25 04:06:34 GMT 13.875778 100.789238 10,075 220 186 0
2019-06-25 04:06:31 GMT 13.877884 100.790611 10,075 224 186 -64
2019-06-25 04:06:27 GMT 13.879852 100.792740 10,100 227 186 -64
2019-06-25 04:06:23 GMT 13.882529 100.796089 10,100 235 185 0
2019-06-25 04:06:20 GMT 13.883879 100.798744 10,075 240 185 192
2019-06-25 04:06:16 GMT 13.885391 100.800270 10,075 242 185 64
2019-06-25 04:06:11 GMT 13.888069 100.805679 10,075 245 185 -128
2019-06-25 04:06:07 GMT 13.888814 100.808426 10,075 250 185 0
2019-06-25 04:05:59 GMT 13.890289 100.815948 10,075 272 188 -64
2019-06-25 04:05:56 GMT 13.890303 100.818016 10,075 281 190 0
2019-06-25 04:05:51 GMT 13.888916 100.822952 10,075 296 193 0
2019-06-25 04:05:48 GMT 13.887543 100.824898 10,075 309 196 -64
2019-06-25 04:05:45 GMT 13.886215 100.827026 10,075 312 196 0
2019-06-25 04:05:39 GMT 13.881363 100.831238 10,075 324 202 0
2019-06-25 04:05:35 GMT 13.880155 100.832474 10,075 325 202 -64
2019-06-25 04:05:32 GMT 13.877362 100.833916 10,075 325 202 -64
2019-06-25 04:05:27 GMT 13.873125 100.837341 10,100 324 201 -128
2019-06-25 04:05:24 GMT 13.870468 100.839386 10,100 324 201 -128
2019-06-25 04:05:19 GMT 13.867074 100.842056 10,100 325 201 0
2019-06-25 04:05:16 GMT 13.864932 100.843460 10,100 325 200 -64
2019-06-25 04:05:13 GMT 13.862137 100.845543 10,100 325 200 0
2019-06-25 04:05:08 GMT 13.858741 100.848328 10,100 325 200 256
2019-06-25 04:05:05 GMT 13.855994 100.850349 10,075 325 200 512
2019-06-25 04:05:02 GMT 13.853993 100.851746 10,075 325 202 -64
2019-06-25 04:04:59 GMT 13.852596 100.852470 10,075 325 202 128
2019-06-25 04:04:54 GMT 13.847717 100.855865 10,050 326 206 64
2019-06-25 04:04:51 GMT 13.845101 100.857864 10,050 325 210 128
2019-06-25 04:04:47 GMT 13.842270 100.860031 10,075 325 213 -128
2019-06-25 04:04:43 GMT 13.839523 100.861977 10,075 325 213 -64
2019-06-25 04:04:39 GMT 13.836861 100.864128 10,075 325 213 -192
2019-06-25 04:04:35 GMT 13.831879 100.867416 10,075 325 214 -64
2019-06-25 04:04:32 GMT 13.830670 100.868225 10,075 325 214 0
2019-06-25 04:04:29 GMT 13.827923 100.870201 10,075 325 215 128
2019-06-25 04:04:25 GMT 13.825104 100.872345 10,075 325 215 64
2019-06-25 04:04:22 GMT 13.822311 100.874474 10,075 325 216 0
2019-06-25 04:04:19 GMT 13.819078 100.877136 10,075 325 218 -64
2019-06-25 04:04:15 GMT 13.815587 100.879211 10,075 325 218 0
2019-06-25 04:04:12 GMT 13.813339 100.881294 10,075 326 219 64
2019-06-25 04:04:07 GMT 13.806564 100.885414 10,075 327 221 -64
2019-06-25 04:04:04 GMT 13.806564 100.885414 10,075 330 221 -256
2019-06-25 04:04:01 GMT 13.804504 100.886833 10,075 329 221 -256
2019-06-25 04:03:57 GMT 13.800430 100.889488 10,100 335 219 -128
2019-06-25 04:03:52 GMT 13.795532 100.891663 10,100 350 216 192
2019-06-25 04:03:49 GMT 13.792218 100.892365 10,100 350 216 192
2019-06-25 04:03:46 GMT 13.789352 100.892326 10,050 1 216 704
2019-06-25 04:03:41 GMT 13.785187 100.891617 9,975 8 215 1152
2019-06-25 04:03:38 GMT 13.783173 100.891716 9,925 10 215 1344
2019-06-25 04:03:35 GMT 13.778503 100.890388 9,825 10 215 1344
2019-06-25 04:03:31 GMT 13.775040 100.889671 9,775 10 215 1344
2019-06-25 04:03:28 GMT 13.772247 100.889618 9,700 10 215 1344
2019-06-25 04:03:24 GMT 13.766693 100.888252 9,600 10 214 1280
2019-06-25 04:03:21 GMT 13.764725 100.888206 9,550 10 214 1280
2019-06-25 04:03:17 GMT 13.761932 100.887642 9,500 11 213 1216
2019-06-25 04:03:10 GMT 13.753738 100.885460 9,325 10 212 1216
2019-06-25 04:03:07 GMT 13.751717 100.885574 9,300 10 211 1152
2019-06-25 04:03:01 GMT 13.745453 100.884186 9,175 10 210 1280
2019-06-25 04:02:56 GMT 13.741379 100.883522 9,125 10 210 1344
2019-06-25 04:02:49 GMT 13.733688 100.882004 8,900 10 210 1344
2019-06-25 04:02:46 GMT 13.731079 100.881393 8,850 10 210 1280
2019-06-25 04:02:38 GMT 13.723646 100.879982 8,675 11 208 1408
2019-06-25 04:02:34 GMT 13.720688 100.879257 8,625 11 208 1408
2019-06-25 04:02:27 GMT 13.713226 100.877930 8,425 10 207 1344
2019-06-25 04:02:17 GMT 13.703613 100.875900 8,200 10 205 1472
2019-06-25 04:02:14 GMT 13.700821 100.875237 8,150 10 205 1472
2019-06-25 04:02:05 GMT 13.693268 100.873863 7,950 10 205 1472
2019-06-25 04:02:02 GMT 13.690594 100.873093 7,900 10 205 1472
2019-06-25 04:01:55 GMT 13.683053 100.871841 7,700 10 205 1536
2019-06-25 04:01:52 GMT 13.680958 100.871742 7,650 10 205 1536
2019-06-25 04:01:45 GMT 13.673463 100.870346 7,450 10 206 1472
2019-06-25 04:01:42 GMT 13.670065 100.869720 7,375 10 206 1472
2019-06-25 04:01:33 GMT 13.661034 100.867599 7,200 11 206 1408
2019-06-25 04:01:30 GMT 13.661034 100.867599 7,150 18 206 1408
2019-06-25 04:01:23 GMT 13.652756 100.865623 6,975 14 205 1536
2019-06-25 04:01:12 GMT 13.643188 100.861595 6,725 39 206 1216
2019-06-25 04:01:02 GMT 13.637571 100.854111 6,500 66 202 1600
2019-06-25 04:00:50 GMT 13.635452 100.843742 6,225 98 200 1408
2019-06-25 04:00:47 GMT 13.636185 100.839531 6,150 108 197 1280
2019-06-25 04:00:41 GMT 13.638794 100.834702 6,025 115 195 1408
2019-06-25 04:00:37 GMT 13.640132 100.831413 5,925 114 195 1472
2019-06-25 04:00:29 GMT 13.643018 100.824524 5,750 114 194 1472
2019-06-25 04:00:25 GMT 13.644321 100.821823 5,675 114 194 1664
2019-06-25 04:00:17 GMT 13.647125 100.815521 5,475 114 196 1664
2019-06-25 04:00:09 GMT 13.650559 100.808090 5,250 114 197 1536
2019-06-25 04:00:04 GMT 13.652608 100.803993 5,150 114 196 960
2019-06-25 03:59:57 GMT 13.654563 100.798401 5,100 115 194 64
2019-06-25 03:59:54 GMT 13.656738 100.795013 5,100 115 193 0
2019-06-25 03:59:49 GMT 13.659404 100.788193 5,100 115 190 0
2019-06-25 03:59:46 GMT 13.659404 100.788193 5,100 115 190 0
2019-06-25 03:59:43 GMT 13.660847 100.786072 5,100 116 188 0
2019-06-25 03:59:35 GMT 13.663696 100.779152 5,100 118 182 -64
2019-06-25 03:59:32 GMT 13.664337 100.777824 5,100 120 180 -64
2019-06-25 03:59:26 GMT 13.667725 100.772850 5,100 139 172 0
2019-06-25 03:59:22 GMT 13.670425 100.771477 5,100 151 166 -64
2019-06-25 03:59:14 GMT 13.675232 100.769539 5,100 178 156 192
2019-06-25 03:59:11 GMT 13.677979 100.769348 5,075 183 154 256
2019-06-25 03:59:05 GMT 13.682122 100.769493 5,050 185 151 256
2019-06-25 03:59:01 GMT 13.684799 100.769493 5,050 185 151 256
2019-06-25 03:58:56 GMT 13.688173 100.770164 5,050 185 150 -256
2019-06-25 03:58:52 GMT 13.691618 100.770073 5,075 185 148 -192
2019-06-25 03:58:49 GMT 13.693015 100.770699 5,100 185 148 0
2019-06-25 03:58:46 GMT 13.695099 100.770866 5,075 184 148 0
2019-06-25 03:58:42 GMT 13.698532 100.770767 5,075 184 148 0
2019-06-25 03:58:39 GMT 13.700638 100.770721 5,075 184 148 192
2019-06-25 03:58:33 GMT 13.704746 100.771469 5,075 184 150 -64
2019-06-25 03:58:29 GMT 13.706863 100.771477 5,075 184 150 64
2019-06-25 03:58:25 GMT 13.710251 100.771523 5,075 184 150 0
2019-06-25 03:58:20 GMT 13.712997 100.771523 5,075 184 150 0
2019-06-25 03:58:17 GMT 13.715057 100.772141 5,100 184 150 0
2019-06-25 03:58:13 GMT 13.717804 100.772141 5,100 184 151 -192
2019-06-25 03:58:10 GMT 13.719736 100.772095 5,075 184 166 64
2019-06-25 03:58:07 GMT 13.721970 100.772095 5,100 184 152 128
2019-06-25 03:58:04 GMT 13.725266 100.772804 5,075 184 152 64
2019-06-25 03:58:01 GMT 13.726672 100.772911 5,075 184 153 0
2019-06-25 03:57:58 GMT 13.728674 100.772865 5,075 184 153 0
2019-06-25 03:57:55 GMT 13.731537 100.772850 5,075 184 153 64
2019-06-25 03:57:50 GMT 13.734970 100.772903 5,075 185 155 0
2019-06-25 03:57:47 GMT 13.737076 100.773613 5,075 185 155 0
2019-06-25 03:57:42 GMT 13.739822 100.773613 5,075 185 156 64
2019-06-25 03:57:39 GMT 13.743152 100.773491 5,075 184 158 -64
2019-06-25 03:57:34 GMT 13.748108 100.774323 5,075 184 161 -128
2019-06-25 03:57:28 GMT 13.750763 100.774323 5,075 184 162 64
2019-06-25 03:57:24 GMT 13.754045 100.774170 5,075 184 164 -64
2019-06-25 03:57:21 GMT 13.755535 100.774261 5,075 184 165 -64
2019-06-25 03:57:17 GMT 13.760236 100.774887 5,075 184 167 64
2019-06-25 03:57:11 GMT 13.763901 100.774933 5,075 184 171 0
2019-06-25 03:57:07 GMT 13.767242 100.774986 5,150 185 177 -192
2019-06-25 03:57:03 GMT 13.769919 100.775658 5,100 184 175 -192
2019-06-25 03:57:00 GMT 13.772095 100.775642 5,100 184 175 -192
2019-06-25 03:56:56 GMT 13.776111 100.775566 5,125 185 176 -384
2019-06-25 03:56:53 GMT 13.778252 100.776283 5,125 185 177 -192
2019-06-25 03:56:50 GMT 13.780859 100.776382 5,125 185 178 256
2019-06-25 03:56:42 GMT 13.787050 100.776962 5,075 188 182 64
2019-06-25 03:56:39 GMT 13.789856 100.776924 5,075 189 182 -64
2019-06-25 03:56:32 GMT 13.796082 100.778961 5,075 200 182 -64
2019-06-25 03:56:29 GMT 13.798920 100.779762 5,075 208 182 0
2019-06-25 03:56:24 GMT 13.802226 100.782410 5,100 221 183 0
2019-06-25 03:56:21 GMT 13.804321 100.783791 5,100 226 183 0
2019-06-25 03:56:17 GMT 13.805718 100.785103 5,100 230 183 0
2019-06-25 03:56:13 GMT 13.807846 100.789139 5,100 242 185 64
2019-06-25 03:56:08 GMT 13.809814 100.793404 5,075 252 187 64
2019-06-25 03:56:02 GMT 13.811211 100.797485 5,075 262 191 64
2019-06-25 03:55:59 GMT 13.811874 100.800980 5,075 264 192 0
2019-06-25 03:55:56 GMT 13.811956 100.802887 5,075 264 193 192
2019-06-25 03:55:52 GMT 13.812607 100.807182 5,075 264 194 64
2019-06-25 03:55:48 GMT 13.812701 100.811127 5,075 265 193 -192
2019-06-25 03:55:44 GMT 13.813248 100.813957 5,100 268 194 -576
2019-06-25 03:55:41 GMT 13.813306 100.818062 5,100 274 194 -64
2019-06-25 03:55:38 GMT 13.812653 100.820206 5,075 277 194 896
2019-06-25 03:55:34 GMT 13.812653 100.823662 5,075 280 193 256
2019-06-25 03:55:31 GMT 13.811966 100.827072 5,075 282 192 -192
2019-06-25 03:55:27 GMT 13.811234 100.830528 5,075 282 192 0
2019-06-25 03:55:23 GMT 13.810593 100.833183 5,100 283 192 -512
2019-06-25 03:55:20 GMT 13.809860 100.836548 5,100 283 191 64
2019-06-25 03:55:16 GMT 13.809174 100.840141 5,100 283 191 192
2019-06-25 03:55:12 GMT 13.808511 100.842690 5,075 283 191 192
2019-06-25 03:55:09 GMT 13.807800 100.846161 5,075 283 191 -192
2019-06-25 03:55:05 GMT 13.806519 100.850372 5,075 283 192 -64
2019-06-25 03:55:01 GMT 13.806519 100.852409 5,075 283 192 -64
2019-06-25 03:54:57 GMT 13.805832 100.855820 5,075 284 192 128
2019-06-25 03:54:54 GMT 13.804461 100.859840 5,075 283 192 0
2019-06-25 03:54:50 GMT 13.804413 100.862068 5,075 283 192 64
2019-06-25 03:54:47 GMT 13.803680 100.865433 5,075 284 192 128
2019-06-25 03:54:42 GMT 13.802353 100.868843 5,075 285 192 64
2019-06-25 03:54:37 GMT 13.801063 100.874924 5,100 289 193 -256
2019-06-25 03:54:33 GMT 13.799606 100.877930 5,100 299 195 -64
2019-06-25 03:54:26 GMT 13.795616 100.883354 5,075 319 200 256
2019-06-25 03:54:22 GMT 13.792916 100.885376 5,075 328 203 -192
2019-06-25 03:54:15 GMT 13.787292 100.888252 5,075 347 209 -64
2019-06-25 03:54:12 GMT 13.783859 100.888870 5,075 357 211 -128
2019-06-25 03:54:07 GMT 13.779190 100.888824 5,100 6 213 0
2019-06-25 03:54:04 GMT 13.777042 100.888947 5,075 14 215 128
2019-06-25 03:54:00 GMT 13.771545 100.887596 5,075 15 215 0
2019-06-25 03:53:56 GMT 13.768845 100.886787 5,075 15 215 -64
2019-06-25 03:53:53 GMT 13.766195 100.885475 5,075 14 216 -128
2019-06-25 03:53:49 GMT 13.761246 100.884796 5,100 11 214 64
2019-06-25 03:53:43 GMT 13.755814 100.883499 5,100 10 214 0
2019-06-25 03:53:40 GMT 13.753114 100.882774 5,075 11 215 128
2019-06-25 03:53:37 GMT 13.750414 100.882149 5,075 11 215 192
2019-06-25 03:53:32 GMT 13.744766 100.881294 5,075 11 216 0
2019-06-25 03:53:27 GMT 13.740601 100.880066 5,075 11 217 -128
2019-06-25 03:53:23 GMT 13.736588 100.879311 5,075 11 217 -128
2019-06-25 03:53:19 GMT 13.731839 100.878586 5,100 11 214 -192
2019-06-25 03:53:16 GMT 13.730347 100.877983 5,100 11 213 -192
2019-06-25 03:53:12 GMT 13.726273 100.877220 5,100 11 210 0
2019-06-25 03:53:06 GMT 13.720108 100.875839 5,050 11 205 576
2019-06-25 03:53:01 GMT 13.715927 100.875237 5,000 11 202 1216
2019-06-25 03:52:56 GMT 13.709867 100.873764 4,850 11 201 1408
2019-06-25 03:52:49 GMT 13.705118 100.873184 4,725 11 201 1408
2019-06-25 03:52:45 GMT 13.699579 100.871742 4,600 10 201 1408
2019-06-25 03:52:40 GMT 13.695236 100.871017 4,500 10 200 1472
2019-06-25 03:52:36 GMT 13.691940 100.870399 4,400 10 200 1472
2019-06-25 03:52:33 GMT 13.690594 100.870445 4,375 10 200 1472
2019-06-25 03:52:29 GMT 13.685846 100.869095 4,100 10 200 1536
2019-06-25 03:52:24 GMT 13.680954 100.868370 4,125 10 200 1536
2019-06-25 03:52:18 GMT 13.676010 100.867607 4,000 10 200 1472
2019-06-25 03:52:13 GMT 13.670563 100.866234 3,850 11 199 1408
2019-06-25 03:52:07 GMT 13.665848 100.865623 3,750 11 199 1408
2019-06-25 03:52:02 GMT 13.661034 100.864273 3,625 12 198 1600
2019-06-25 03:51:55 GMT 13.656143 100.862823 3,475 17 198 1600
2019-06-25 03:51:50 GMT 13.651382 100.860840 3,350 32 199 1536
2019-06-25 03:51:45 GMT 13.647949 100.858139 3,225 47 198 1536
2019-06-25 03:51:41 GMT 13.645752 100.855347 3,150 55 198 1600
2019-06-25 03:51:34 GMT 13.643143 100.848480 2,950 79 195 1472
2019-06-25 03:51:21 GMT 13.645706 100.834084 2,475 115 198 1792
2019-06-25 03:51:11 GMT 13.647766 100.829346 2,275 115 195 2048
2019-06-25 03:51:07 GMT 13.649861 100.824570 2,150 115 200 1408
2019-06-25 03:51:00 GMT 13.652618 100.818314 2,100 116 200 0
2019-06-25 03:50:57 GMT 13.653946 100.816231 2,100 115 199 -64
2019-06-25 03:50:49 GMT 13.657449 100.809341 2,100 115 196 -64
2019-06-25 03:50:45 GMT 13.658844 100.805862 2,100 115 195 0
2019-06-25 03:50:35 GMT 13.662896 100.797684 2,100 115 190 64
2019-06-25 03:50:28 GMT 13.664990 100.791611 2,100 116 187 128
2019-06-25 03:50:24 GMT 13.666946 100.788818 2,100 116 185 0
2019-06-25 03:50:17 GMT 13.669134 100.783272 2,100 116 181 192
2019-06-25 03:50:13 GMT 13.671204 100.780479 2,100 117 178 -64
2019-06-25 03:50:05 GMT 13.674534 100.774307 2,100 132 169 64
2019-06-25 03:50:02 GMT 13.676605 100.772850 2,100 142 165 64
2019-06-25 03:49:56 GMT 13.683472 100.770119 2,100 170 156 64
2019-06-25 03:49:51 GMT 13.683472 100.770119 2,075 179 155 256
2019-06-25 03:49:45 GMT 13.687475 100.770218 2,050 183 154 256
2019-06-25 03:49:40 GMT 13.691757 100.770721 2,050 183 153 -192
2019-06-25 03:49:35 GMT 13.695017 100.770744 2,075 184 150 -64
2019-06-25 03:49:32 GMT 13.696609 100.770813 2,075 184 148 0
2019-06-25 03:49:29 GMT 13.699206 100.770844 2,075 184 150 -64
2019-06-25 03:49:22 GMT 13.704048 100.771469 2,100 184 148 0
2019-06-25 03:49:18 GMT 13.707504 100.771523 2,100 184 147 256
2019-06-25 03:49:13 GMT 13.712334 100.771515 2,100 184 148 0
2019-06-25 03:49:07 GMT 13.714988 100.772141 2,100 184 148 0
2019-06-25 03:49:02 GMT 13.717758 100.772186 2,075 184 149 192
2019-06-25 03:48:59 GMT 13.719131 100.772095 2,075 184 149 -64
2019-06-25 03:48:55 GMT 13.721924 100.772240 2,075 184 149 -192
2019-06-25 03:48:50 GMT 13.725927 100.772865 2,100 184 149 -64
2019-06-25 03:48:45 GMT 13.729568 100.772903 2,075 184 149 64
2019-06-25 03:48:42 GMT 13.731467 100.772865 2,075 184 148 0
2019-06-25 03:48:39 GMT 13.733597 100.772850 2,075 184 148 0
2019-06-25 03:48:34 GMT 13.737030 100.773560 2,075 184 148 64
2019-06-25 03:48:30 GMT 13.739822 100.773560 2,075 184 149 0
2019-06-25 03:48:27 GMT 13.741104 100.773468 2,075 184 149 -128
2019-06-25 03:48:24 GMT 13.744502 100.773491 2,075 184 148 64
2019-06-25 03:48:17 GMT 13.748645 100.774261 2,075 184 148 -64
2019-06-25 03:48:13 GMT 13.751438 100.774170 2,100 184 148 -64
2019-06-25 03:48:05 GMT 13.756210 100.774277 2,075 184 148 64
2019-06-25 03:48:02 GMT 13.759094 100.774986 2,075 184 148 -64
2019-06-25 03:47:55 GMT 13.763774 100.774940 2,075 184 149 0
2019-06-25 03:47:50 GMT 13.767126 100.774986 2,075 184 150 128
2019-06-25 03:47:45 GMT 13.770721 100.775597 2,075 184 150 64
2019-06-25 03:47:40 GMT 13.774887 100.775642 2,075 184 151 128
2019-06-25 03:47:34 GMT 13.778320 100.776260 2,075 184 152 64
2019-06-25 03:47:29 GMT 13.782349 100.776260 2,075 184 153 -64
2019-06-25 03:47:23 GMT 13.786352 100.776237 2,075 184 154 0
2019-06-25 03:47:18 GMT 13.789937 100.776962 2,075 184 155 0
2019-06-25 03:47:12 GMT 13.794022 100.777069 2,100 184 156 0
2019-06-25 03:47:07 GMT 13.798130 100.776917 2,100 184 156 -64
2019-06-25 03:47:04 GMT 13.800201 100.777588 2,100 184 157 -128
2019-06-25 03:47:01 GMT 13.802261 100.777733 2,100 184 157 -64
2019-06-25 03:46:55 GMT 13.805695 100.777634 2,075 185 157 192
2019-06-25 03:46:51 GMT 13.809721 100.777733 2,075 184 158 0
2019-06-25 03:46:48 GMT 13.811816 100.778358 2,100 184 159 0
2019-06-25 03:46:43 GMT 13.816040 100.778442 2,100 184 159 -128
2019-06-25 03:46:40 GMT 13.818100 100.778397 2,100 184 159 0
2019-06-25 03:46:34 GMT 13.822128 100.778961 2,100 184 160 192
2019-06-25 03:46:31 GMT 13.824804 100.779030 2,075 184 161 128
2019-06-25 03:46:28 GMT 13.826294 100.779129 2,075 184 161 0
2019-06-25 03:46:24 GMT 13.829819 100.779007 2,075 184 163 0
2019-06-25 03:46:21 GMT 13.831879 100.779106 2,075 184 164 0
2019-06-25 03:46:18 GMT 13.837141 100.779755 2,075 184 166 256
2019-06-25 03:46:15 GMT 13.837141 100.779755 2,075 184 167 64
2019-06-25 03:46:11 GMT 13.840027 100.779716 2,075 184 169 -64
2019-06-25 03:46:08 GMT 13.842041 100.779671 2,075 184 170 -128
2019-06-25 03:46:00 GMT 13.848127 100.780380 2,125 184 171 -256
2019-06-25 03:45:57 GMT 13.850874 100.780334 2,125 184 172 -128
2019-06-25 03:45:51 GMT 13.855715 100.780434 2,100 184 175 256
2019-06-25 03:45:48 GMT 13.859161 100.781044 2,100 184 176 0
2019-06-25 03:45:45 GMT 13.859161 100.781044 2,100 184 176 0
2019-06-25 03:45:38 GMT 13.866028 100.781090 2,100 184 175 0
2019-06-25 03:45:34 GMT 13.868750 100.781731 2,100 184 175 0
2019-06-25 03:45:28 GMT 13.873638 100.781731 2,100 184 175 0
2019-06-25 03:45:24 GMT 13.877036 100.781776 2,100 184 175 0
2019-06-25 03:45:17 GMT 13.883227 100.782501 2,100 184 176 64
2019-06-25 03:45:14 GMT 13.885941 100.782463 2,100 184 176 0
2019-06-25 03:45:06 GMT 13.892166 100.783081 2,100 184 176 0
2019-06-25 03:45:02 GMT 13.894272 100.783226 2,100 184 176 -64
2019-06-25 03:44:57 GMT 13.899753 100.783180 2,100 184 176 -64
2019-06-25 03:44:53 GMT 13.903290 100.783936 2,100 184 175 64
2019-06-25 03:44:50 GMT 13.905153 100.783897 2,100 185 175 64
2019-06-25 03:44:46 GMT 13.908646 100.783836 2,100 184 175 0
2019-06-25 03:44:43 GMT 13.910647 100.784477 2,100 184 175 -64
2019-06-25 03:44:40 GMT 13.914185 100.784500 2,100 184 174 64
2019-06-25 03:44:34 GMT 13.919037 100.784546 2,100 185 174 0
2019-06-25 03:44:31 GMT 13.921783 100.785255 2,075 185 174 64
2019-06-25 03:44:25 GMT 13.926521 100.785202 2,075 186 174 64
2019-06-25 03:44:21 GMT 13.927778 100.785873 2,075 187 175 64
2019-06-25 03:44:18 GMT 13.929977 100.785973 2,100 215 175 -64
2019-06-25 03:44:11 GMT 13.936203 100.787201 2,100 200 174 128
2019-06-25 03:44:08 GMT 13.939590 100.787910 2,075 206 174 0
2019-06-25 03:44:01 GMT 13.943665 100.791412 2,075 223 174 0
2019-06-25 03:43:56 GMT 13.946492 100.794067 2,100 235 175 -64
2019-06-25 03:43:52 GMT 13.948494 100.797440 2,100 244 175 0
2019-06-25 03:43:49 GMT 13.949158 100.798897 2,100 248 176 64
2019-06-25 03:43:46 GMT 13.949890 100.801636 2,100 253 176 0
2019-06-25 03:43:39 GMT 13.952042 100.807755 2,100 253 176 0
2019-06-25 03:43:36 GMT 13.952637 100.809837 2,100 253 176 0
2019-06-25 03:43:29 GMT 13.954102 100.815331 2,100 254 176 0
2019-06-25 03:43:25 GMT 13.955476 100.818787 2,075 254 176 64
2019-06-25 03:43:18 GMT 13.956780 100.824234 2,075 254 176 -64
2019-06-25 03:43:11 GMT 13.958083 100.829048 2,075 254 176 0
2019-06-25 03:43:07 GMT 13.959480 100.833099 2,075 255 175 0
2019-06-25 03:43:04 GMT 13.960318 100.835846 2,075 255 175 192
2019-06-25 03:42:56 GMT 13.961563 100.841515 2,075 255 175 64
2019-06-25 03:42:52 GMT 13.962250 100.844124 2,075 257 175 -128
2019-06-25 03:42:46 GMT 13.963018 100.850349 2,075 273 178 -64
2019-06-25 03:42:42 GMT 13.963018 100.853722 2,100 285 180 -128
2019-06-25 03:42:35 GMT 13.960327 100.859322 2,100 306 184 64
2019-06-25 03:42:30 GMT 13.958908 100.861313 2,075 312 186 64
2019-06-25 03:42:23 GMT 13.954239 100.866142 2,075 313 186 -64
2019-06-25 03:42:20 GMT 13.951355 100.869644 2,075 313 186 128
2019-06-25 03:42:16 GMT 13.949387 100.871727 2,075 312 185 -128
2019-06-25 03:42:13 GMT 13.947922 100.873718 2,100 313 186 0
2019-06-25 03:42:09 GMT 13.945313 100.876465 2,075 313 185 -64
2019-06-25 03:42:04 GMT 13.941883 100.879791 2,100 313 186 -128
2019-06-25 03:42:01 GMT 13.941742 100.880539 2,100 313 185 0
2019-06-25 03:41:58 GMT 13.939041 100.883286 2,100 314 185 64
2019-06-25 03:41:51 GMT 13.935608 100.887405 2,100 314 186 128
2019-06-25 03:41:46 GMT 13.932945 100.890099 2,075 315 185 64
2019-06-25 03:41:41 GMT 13.928755 100.894241 2,075 315 185 0
2019-06-25 03:41:36 GMT 13.926102 100.897041 2,075 318 186 -192
2019-06-25 03:41:28 GMT 13.920609 100.901230 2,075 337 190 64
2019-06-25 03:41:25 GMT 13.917257 100.902580 2,075 344 191 64
2019-06-25 03:41:18 GMT 13.912416 100.902725 2,075 2 195 0
2019-06-25 03:41:15 GMT 13.908272 100.902634 2,075 9 196 0
2019-06-25 03:41:08 GMT 13.902081 100.901375 2,100 9 196 -128
2019-06-25 03:41:04 GMT 13.898575 100.900620 2,100 9 196 0
2019-06-25 03:40:57 GMT 13.892538 100.899879 2,075 9 196 64
2019-06-25 03:40:51 GMT 13.886856 100.898529 2,075 10 197 -128
2019-06-25 03:40:46 GMT 13.882808 100.897812 2,075 10 198 -128
2019-06-25 03:40:42 GMT 13.878805 100.897186 2,100 9 197 -128
2019-06-25 03:40:35 GMT 13.873123 100.896446 2,075 9 196 0
2019-06-25 03:40:32 GMT 13.869690 100.895836 2,100 9 196 64
2019-06-25 03:40:25 GMT 13.864243 100.894363 2,075 9 197 128
2019-06-25 03:40:21 GMT 13.858841 100.893700 2,075 9 198 -128
2019-06-25 03:40:15 GMT 13.853993 100.893044 2,075 9 198 -128
2019-06-25 03:40:08 GMT 13.849136 100.892380 2,075 9 198 0
2019-06-25 03:40:04 GMT 13.844238 100.891006 2,075 10 199 -128
2019-06-25 03:39:58 GMT 13.838304 100.890244 2,075 10 199 -64
2019-06-25 03:39:54 GMT 13.834860 100.889572 2,100 10 199 0
2019-06-25 03:39:51 GMT 13.832672 100.888847 2,100 10 199 -64
2019-06-25 03:39:47 GMT 13.829269 100.888161 2,075 10 199 -64
2019-06-25 03:39:43 GMT 13.824432 100.887550 2,075 9 199 128
2019-06-25 03:39:36 GMT 13.818832 100.886887 2,075 10 201 0
2019-06-25 03:39:32 GMT 13.814804 100.886124 2,075 10 201 -192
2019-06-25 03:39:26 GMT 13.809265 100.884796 2,100 10 201 0
2019-06-25 03:39:21 GMT 13.804554 100.884079 2,100 10 201 0
2019-06-25 03:39:12 GMT 13.797638 100.882713 2,075 9 202 64
2019-06-25 03:39:09 GMT 13.794266 100.882004 2,075 9 202 64
2019-06-25 03:39:03 GMT 13.784500 100.880630 2,100 9 203 0
2019-06-25 03:38:59 GMT 13.784500 100.880630 2,100 9 203 0
2019-06-25 03:38:53 GMT 13.779183 100.879311 2,100 9 204 -64
2019-06-25 03:38:49 GMT 13.774979 100.878693 2,100 10 205 -64
2019-06-25 03:38:42 GMT 13.768799 100.877220 2,075 10 205 0
2019-06-25 03:38:37 GMT 13.764705 100.876656 2,075 10 206 0
2019-06-25 03:38:31 GMT 13.758408 100.875900 2,075 10 207 -64
2019-06-25 03:38:27 GMT 13.755209 100.875214 2,075 9 208 64
2019-06-25 03:38:21 GMT 13.748971 100.873817 2,075 10 209 -128
2019-06-25 03:38:17 GMT 13.744176 100.873138 2,100 9 209 -64
2019-06-25 03:38:09 GMT 13.733139 100.871162 2,075 9 211 64
2019-06-25 03:38:05 GMT 13.733139 100.871162 2,075 9 211 64
2019-06-25 03:37:58 GMT 13.724945 100.869598 2,075 10 214 0
2019-06-25 03:37:55 GMT 13.723526 100.868980 2,075 10 215 0
2019-06-25 03:37:48 GMT 13.716757 100.868324 2,075 10 218 -64
2019-06-25 03:37:43 GMT 13.712540 100.866943 2,075 10 220 -128
2019-06-25 03:37:38 GMT 13.706468 100.866295 2,075 9 221 64
2019-06-25 03:37:33 GMT 13.702325 100.865669 2,075 10 221 192
2019-06-25 03:37:28 GMT 13.696087 100.864182 2,075 10 220 -128
2019-06-25 03:37:23 GMT 13.691246 100.863457 2,075 9 220 -128
2019-06-25 03:37:17 GMT 13.685101 100.862106 2,075 9 219 -64
2019-06-25 03:37:12 GMT 13.679535 100.861404 2,100 10 218 -64
2019-06-25 03:37:06 GMT 13.673996 100.860031 2,075 10 216 64
2019-06-25 03:37:01 GMT 13.669189 100.859367 2,075 11 217 64
2019-06-25 03:36:54 GMT 13.663742 100.857948 2,075 12 216 64
2019-06-25 03:36:49 GMT 13.658333 100.856712 2,075 14 215 -64
2019-06-25 03:36:43 GMT 13.651537 100.854683 2,075 26 214 -64
2019-06-25 03:36:30 GMT 13.643157 100.846443 2,075 57 211 64
2019-06-25 03:36:20 GMT 13.639573 100.837624 2,075 83 204 64
2019-06-25 03:36:16 GMT 13.639618 100.832001 2,100 111 196 -256
2019-06-25 03:36:09 GMT 13.640876 100.827362 2,100 111 196 -256
2019-06-25 03:36:06 GMT 13.643097 100.823761 2,075 115 192 256
2019-06-25 03:36:01 GMT 13.644973 100.819748 2,100 115 190 -128
2019-06-25 03:35:54 GMT 13.647021 100.814255 2,100 115 185 -192
2019-06-25 03:35:50 GMT 13.648544 100.811356 2,100 114 179 128
2019-06-25 03:35:45 GMT 13.650558 100.807236 2,075 114 173 576
2019-06-25 03:35:39 GMT 13.652514 100.803322 1,975 115 169 1088
2019-06-25 03:35:34 GMT 13.654037 100.799042 1,850 115 167 1472
2019-06-25 03:35:28 GMT 13.655959 100.795029 1,750 115 167 1472
2019-06-25 03:35:23 GMT 13.658101 100.790794 1,625 115 168 1216
2019-06-25 03:35:17 GMT 13.659485 100.787392 1,525 116 167 1280
2019-06-25 03:35:12 GMT 13.661546 100.783325 1,375 116 166 1792
2019-06-25 03:35:06 GMT 13.662872 100.780525 1,275 116 167 1664
2019-06-25 03:34:55 GMT 13.668365 100.772186 1,100 139 158 384
2019-06-25 03:34:50 GMT 13.671844 100.770149 1,075 160 156 64
2019-06-25 03:34:46 GMT 13.673904 100.769394 1,100 174 153 -64
2019-06-25 03:34:39 GMT 13.679306 100.769394 1,075 185 152 192
2019-06-25 03:34:35 GMT 13.681982 100.769447 1,075 185 152 256
2019-06-25 03:34:24 GMT 13.689606 100.770058 1,075 185 148 -64
2019-06-25 03:34:17 GMT 13.694411 100.770798 1,100 184 148 -128
2019-06-25 03:34:14 GMT 13.696553 100.770889 1,100 184 148 -64
2019-06-25 03:34:09 GMT 13.699812 100.770744 1,100 184 147 0
2019-06-25 03:34:06 GMT 13.702011 100.770866 1,100 184 147 128
2019-06-25 03:34:03 GMT 13.704025 100.770813 1,075 184 148 192
2019-06-25 03:33:59 GMT 13.707400 100.771568 1,075 185 148 128
2019-06-25 03:33:54 GMT 13.710100 100.771423 1,075 184 149 64
2019-06-25 03:33:51 GMT 13.711496 100.771515 1,075 184 149 -256
2019-06-25 03:33:48 GMT 13.715034 100.771568 1,100 184 149 -64
2019-06-25 03:33:42 GMT 13.719224 100.772194 1,100 184 149 192
2019-06-25 03:33:37 GMT 13.721878 100.772186 1,075 185 150 -64
2019-06-25 03:33:31 GMT 13.726776 100.772903 1,100 184 149 64
2019-06-25 03:33:25 GMT 13.729512 100.772911 1,100 184 148 128
2019-06-25 03:33:22 GMT 13.732315 100.772949 1,075 184 147 64
2019-06-25 03:33:19 GMT 13.733562 100.772820 1,075 184 148 64
2019-06-25 03:33:16 GMT 13.736960 100.773590 1,075 184 148 64
2019-06-25 03:33:09 GMT 13.741103 100.773491 1,075 184 148 -128
2019-06-25 03:33:05 GMT 13.744548 100.773537 1,100 184 147 -128
2019-06-25 03:32:59 GMT 13.748108 100.774323 1,100 184 146 192
2019-06-25 03:32:53 GMT 13.751541 100.774178 1,075 184 146 64
2019-06-25 03:32:48 GMT 13.756186 100.774261 1,075 184 147 -64
2019-06-25 03:32:42 GMT 13.758933 100.774986 1,075 185 148 64
2019-06-25 03:32:39 GMT 13.762390 100.774841 1,075 184 150 64
2019-06-25 03:32:32 GMT 13.766602 100.774933 1,075 184 153 64
2019-06-25 03:32:26 GMT 13.771316 100.775566 1,100 184 154 -128
2019-06-25 03:32:21 GMT 13.774155 100.775597 1,100 184 155 -64
2019-06-25 03:32:15 GMT 13.778811 100.776237 1,100 185 155 -64
2019-06-25 03:32:11 GMT 13.782440 100.776306 1,075 185 156 64
2019-06-25 03:32:05 GMT 13.786399 100.776237 1,075 184 156 64
2019-06-25 03:32:00 GMT 13.789902 100.777023 1,075 184 157 0
2019-06-25 03:31:54 GMT 13.794592 100.776962 1,100 185 157 -192
2019-06-25 03:31:49 GMT 13.798187 100.777069 1,100 185 158 0
2019-06-25 03:31:42 GMT 13.802971 100.777588 1,075 185 161 -64
2019-06-25 03:31:37 GMT 13.806427 100.777679 1,075 185 161 -64
2019-06-25 03:31:33 GMT 13.809768 100.778259 1,075 185 162 64
2019-06-25 03:31:27 GMT 13.813864 100.778259 1,075 185 164 0
2019-06-25 03:31:22 GMT 13.818741 100.779007 1,075 186 166 -64
2019-06-25 03:31:17 GMT 13.822906 100.779053 1,100 186 167 -384
2019-06-25 03:31:11 GMT 13.826899 100.779663 1,125 187 168 -192
2019-06-25 03:31:05 GMT 13.831741 100.780380 1,100 190 169 192
2019-06-25 03:31:01 GMT 13.835220 100.781143 1,100 193 172 64
2019-06-25 03:30:55 GMT 13.839386 100.782417 1,100 195 172 192
2019-06-25 03:30:49 GMT 13.844193 100.783173 1,075 196 171 -64
2019-06-25 03:30:44 GMT 13.848312 100.784599 1,100 199 171 0
2019-06-25 03:30:40 GMT 13.850874 100.785927 1,100 201 169 64
2019-06-25 03:30:29 GMT 13.858462 100.788620 1,100 204 169 64
2019-06-25 03:30:19 GMT 13.868144 100.793396 1,100 208 168 -128
2019-06-25 03:30:10 GMT 13.871613 100.795441 1,100 209 167 -64
2019-06-25 03:30:06 GMT 13.874336 100.796715 1,100 209 167 -64
2019-06-25 03:29:57 GMT 13.880630 100.800270 1,075 213 165 0
2019-06-25 03:29:54 GMT 13.882599 100.801743 1,075 213 165 0
2019-06-25 03:29:49 GMT 13.885391 100.803825 1,075 213 164 0
2019-06-25 03:29:46 GMT 13.888138 100.805717 1,075 213 164 0
2019-06-25 03:29:39 GMT 13.892817 100.807800 1,075 191 162 -64
2019-06-25 03:29:34 GMT 13.895599 100.807945 1,075 179 164 64
2019-06-25 03:29:27 GMT 13.901184 100.807281 1,050 168 164 256
2019-06-25 03:29:24 GMT 13.903803 100.806549 1,050 167 164 0
2019-06-25 03:29:16 GMT 13.909297 100.805244 1,075 165 162 -64
2019-06-25 03:29:13 GMT 13.912090 100.804428 1,075 163 163 -64
2019-06-25 03:29:06 GMT 13.916838 100.803123 1,075 161 166 64
2019-06-25 03:29:03 GMT 13.919631 100.801781 1,100 159 168 -64
2019-06-25 03:28:56 GMT 13.924530 100.799751 1,075 159 170 192
2019-06-25 03:28:52 GMT 13.927185 100.798897 1,075 166 170 0
2019-06-25 03:28:47 GMT 13.931305 100.798279 1,075 177 172 192
2019-06-25 03:28:44 GMT 13.933271 100.798164 1,075 191 173 -64
2019-06-25 03:28:41 GMT 13.936249 100.798988 1,075 197 175 -192
2019-06-25 03:28:34 GMT 13.941650 100.801537 1,125 215 178 -384
2019-06-25 03:28:30 GMT 13.943756 100.803017 1,125 223 179 -256
2019-06-25 03:28:24 GMT 13.947235 100.807892 1,100 240 185 192
2019-06-25 03:28:20 GMT 13.949203 100.811211 1,075 241 185 64
2019-06-25 03:28:12 GMT 13.951996 100.816040 1,075 241 185 -64
2019-06-25 03:28:07 GMT 13.954685 100.820091 1,100 241 185 -128
2019-06-25 03:28:01 GMT 13.956826 100.824280 1,075 242 185 192
2019-06-25 03:27:56 GMT 13.958782 100.828377 1,075 243 185 128
2019-06-25 03:27:50 GMT 13.960968 100.833229 1,075 248 186 -64
2019-06-25 03:27:44 GMT 13.962250 100.839340 1,100 273 188 0
2019-06-25 03:27:39 GMT 13.962387 100.842751 1,100 285 188 64
2019-06-25 03:27:36 GMT 13.961700 100.846252 1,075 290 190 128
2019-06-25 03:27:30 GMT 13.959549 100.850990 1,075 293 191 0
2019-06-25 03:27:25 GMT 13.958363 100.855797 1,075 293 191 -128
2019-06-25 03:27:19 GMT 13.956128 100.860512 1,075 293 192 -128
2019-06-25 03:27:14 GMT 13.954788 100.864151 1,100 293 191 -128
2019-06-25 03:27:07 GMT 13.952776 100.869476 1,100 293 190 256
2019-06-25 03:27:03 GMT 13.950668 100.874428 1,100 293 190 192
2019-06-25 03:26:58 GMT 13.948726 100.878487 1,100 293 189 0
2019-06-25 03:26:52 GMT 13.946538 100.883308 1,075 295 190 64
2019-06-25 03:26:47 GMT 13.944583 100.887352 1,075 301 191 0
2019-06-25 03:26:41 GMT 13.941788 100.891479 1,075 320 193 -128
2019-06-25 03:26:35 GMT 13.937833 100.894241 1,075 334 195 0
2019-06-25 03:26:30 GMT 13.932992 100.896362 1,100 341 195 128
2019-06-25 03:26:22 GMT 13.926727 100.898582 1,075 341 196 -64
2019-06-25 03:26:19 GMT 13.923340 100.899765 1,075 340 195 -64
2019-06-25 03:26:14 GMT 13.920004 100.901283 1,100 340 196 64
2019-06-25 03:26:07 GMT 13.912903 100.904022 1,100 340 195 192
2019-06-25 03:26:04 GMT 13.910843 100.904594 1,075 340 195 -64
2019-06-25 03:26:00 GMT 13.907528 100.906052 1,100 340 195 0
2019-06-25 03:25:57 GMT 13.904709 100.906769 1,100 341 195 64
2019-06-25 03:25:52 GMT 13.901336 100.908119 1,075 340 195 64
2019-06-25 03:25:49 GMT 13.897842 100.909515 1,075 341 196 64
2019-06-25 03:25:45 GMT 13.895145 100.910149 1,100 341 196 -192
2019-06-25 03:25:42 GMT 13.892398 100.911446 1,075 341 196 192
2019-06-25 03:25:38 GMT 13.888953 100.912895 1,075 341 196 -64
2019-06-25 03:25:34 GMT 13.886207 100.913612 1,075 341 196 320
2019-06-25 03:25:31 GMT 13.882828 100.914871 1,075 342 196 64
2019-06-25 03:25:24 GMT 13.876602 100.917000 1,075 344 197 -192
2019-06-25 03:25:21 GMT 13.873312 100.917709 1,075 351 197 64
2019-06-25 03:25:17 GMT 13.869867 100.918388 1,100 4 198 128
2019-06-25 03:25:12 GMT 13.866375 100.917854 1,075 6 198 192
2019-06-25 03:25:06 GMT 13.860031 100.917000 1,075 9 198 0
2019-06-25 03:24:59 GMT 13.853851 100.916336 1,075 9 198 128
2019-06-25 03:24:55 GMT 13.849942 100.915688 1,075 9 198 -128
2019-06-25 03:24:52 GMT 13.847196 100.915016 1,075 9 199 -192
2019-06-25 03:24:48 GMT 13.842911 100.914299 1,100 9 199 0
2019-06-25 03:24:44 GMT 13.840260 100.913666 1,100 9 199 -128
2019-06-25 03:24:41 GMT 13.837513 100.912987 1,100 9 199 -64
2019-06-25 03:24:33 GMT 13.829956 100.912315 1,100 9 198 -64
2019-06-25 03:24:27 GMT 13.824463 100.910843 1,075 9 199 256
2019-06-25 03:24:22 GMT 13.819777 100.910194 1,075 9 200 64
2019-06-25 03:24:12 GMT 13.810745 100.908798 1,075 9 200 -128
2019-06-25 03:23:57 GMT 13.797592 100.906677 1,075 9 199 64
2019-06-25 03:23:54 GMT 13.794964 100.906097 1,075 10 201 0
2019-06-25 03:23:50 GMT 13.790771 100.905495 1,075 9 200 0
2019-06-25 03:23:43 GMT 13.784630 100.904030 1,075 9 200 -64
2019-06-25 03:23:39 GMT 13.780472 100.903313 1,075 9 200 -64
2019-06-25 03:23:32 GMT 13.773514 100.902039 1,100 9 200 0
2019-06-25 03:23:28 GMT 13.770172 100.901375 1,100 9 199 0
2019-06-25 03:23:23 GMT 13.766006 100.900665 1,100 9 199 0
2019-06-25 03:23:18 GMT 13.761246 100.899902 1,075 9 199 64
2019-06-25 03:23:12 GMT 13.756439 100.899193 1,100 9 199 -128
2019-06-25 03:23:06 GMT 13.751066 100.898582 1,100 8 199 -128
2019-06-25 03:23:02 GMT 13.745572 100.897858 1,100 8 200 192
2019-06-25 03:22:56 GMT 13.741379 100.897064 1,075 9 200 0
2019-06-25 03:22:51 GMT 13.735886 100.895737 1,075 9 201 64
2019-06-25 03:22:45 GMT 13.730301 100.895126 1,075 9 202 0
2019-06-25 03:22:39 GMT 13.726181 100.894409 1,075 9 203 -128
2019-06-25 03:22:35 GMT 13.721329 100.893799 1,100 8 202 -256
2019-06-25 03:22:27 GMT 13.714462 100.892380 1,100 9 199 64
2019-06-25 03:22:24 GMT 13.711263 100.891640 1,100 9 199 64
2019-06-25 03:22:17 GMT 13.704941 100.891052 1,100 9 199 128
2019-06-25 03:22:13 GMT 13.701534 100.890244 1,100 9 199 0
2019-06-25 03:22:07 GMT 13.696701 100.889580 1,075 10 200 0
2019-06-25 03:22:00 GMT 13.690548 100.888321 1,075 10 200 0
2019-06-25 03:21:57 GMT 13.686447 100.887497 1,075 9 200 0
2019-06-25 03:21:46 GMT 13.676815 100.886101 1,100 9 199 64
2019-06-25 03:21:29 GMT 13.660950 100.882812 1,075 9 199 -192
2019-06-25 03:21:24 GMT 13.656143 100.882050 1,075 10 200 128
2019-06-25 03:21:13 GMT 13.646742 100.880707 1,075 10 200 128
2019-06-25 03:21:03 GMT 13.637650 100.878693 1,075 10 201 64
2019-06-25 03:20:57 GMT 13.631424 100.877930 1,075 10 200 -128
2019-06-25 03:20:52 GMT 13.625931 100.876556 1,100 10 200 -128
2019-06-25 03:20:42 GMT 13.617786 100.875214 1,100 10 199 64
2019-06-25 03:20:39 GMT 13.614990 100.874474 1,100 10 199 0
2019-06-25 03:20:18 GMT 13.596451 100.871017 1,075 9 198 64
2019-06-25 03:20:13 GMT 13.591003 100.870399 1,075 10 199 -64
2019-06-25 03:20:10 GMT 13.588257 100.869690 1,075 10 199 64
2019-06-25 03:20:03 GMT 13.582872 100.868950 1,075 10 199 64
2019-06-25 03:19:58 GMT 13.577133 100.867661 1,075 10 199 0
2019-06-25 03:19:50 GMT 13.570404 100.866234 1,075 10 199 -128
2019-06-25 03:19:47 GMT 13.567743 100.866249 1,100 10 198 0
2019-06-25 03:19:40 GMT 13.562073 100.864960 1,075 11 198 128
2019-06-25 03:19:35 GMT 13.557312 100.863541 1,075 11 198 128
2019-06-25 03:19:02 GMT 13.531219 100.847153 1,075 40 198 0
2019-06-25 03:18:58 GMT 13.528473 100.845161 1,075 40 198 128
2019-06-25 03:18:12 GMT 13.514022 100.808090 1,100 87 192 64
2019-06-25 03:18:07 GMT 13.513962 100.803062 1,075 87 192 64
2019-06-25 03:17:47 GMT 13.512634 100.785400 1,100 86 189 -192
2019-06-25 03:17:34 GMT 13.511902 100.773659 1,100 86 186 0
2019-06-25 03:17:25 GMT 13.511973 100.766167 1,075 86 185 64
2019-06-25 03:17:17 GMT 13.511261 100.759262 1,100 86 183 0
2019-06-25 03:17:14 GMT 13.511124 100.756470 1,100 86 183 0
2019-06-25 03:17:08 GMT 13.510484 100.748390 1,075 86 183 64
2019-06-25 03:16:54 GMT 13.510437 100.738663 1,075 86 183 0
2019-06-25 03:15:45 GMT 13.507132 100.678375 1,100 87 182 -192
2019-06-25 03:15:20 GMT 13.506340 100.656357 1,100 87 182 0
2019-06-25 03:14:49 GMT 13.505035 100.630074 1,075 89 180 -64
2019-06-25 03:14:30 GMT 13.508331 100.615685 1,075 121 176 -64
2019-06-25 03:14:21 GMT 13.513962 100.610191 1,075 136 176 0
2019-06-25 03:14:12 GMT 13.519455 100.604790 1,075 137 177 128
2019-06-25 03:14:03 GMT 13.524857 100.599152 1,100 137 177 -128
2019-06-25 03:14:00 GMT 13.526172 100.597855 1,100 136 176 0
2019-06-25 03:13:53 GMT 13.530967 100.593086 1,100 136 176 -64
2019-06-25 03:13:49 GMT 13.532501 100.591576 1,100 136 176 0
2019-06-25 03:13:44 GMT 13.536553 100.588264 1,100 137 177 -64
2019-06-25 03:13:39 GMT 13.539299 100.585472 1,075 136 176 0
2019-06-25 03:13:28 GMT 13.545351 100.579399 1,100 137 177 0
2019-06-25 03:13:16 GMT 13.552939 100.572510 1,100 137 177 -128
2019-06-25 03:13:06 GMT 13.559224 100.567062 1,075 137 177 64
2019-06-25 03:13:00 GMT 13.562576 100.563545 1,075 137 178 -64
2019-06-25 03:12:55 GMT 13.565369 100.560898 1,075 137 178 0
2019-06-25 03:12:51 GMT 13.568720 100.558052 1,075 137 178 0
2019-06-25 03:12:48 GMT 13.569419 100.556755 1,100 137 179 -64
2019-06-25 03:12:45 GMT 13.572258 100.553909 1,100 137 179 64
2019-06-25 03:12:38 GMT 13.576355 100.550583 1,075 137 179 0
2019-06-25 03:12:33 GMT 13.579102 100.547684 1,075 137 179 0
2019-06-25 03:12:29 GMT 13.586014 100.541573 1,100 137 180 128
2019-06-25 03:12:22 GMT 13.586014 100.541573 1,100 137 179 0
2019-06-25 03:12:17 GMT 13.588598 100.538879 1,100 137 179 0
2019-06-25 03:12:11 GMT 13.592880 100.534706 1,100 137 179 -192
2019-06-25 03:12:05 GMT 13.596186 100.531937 1,075 137 179 0
2019-06-25 03:12:01 GMT 13.599060 100.529305 1,075 137 179 64
2019-06-25 03:11:57 GMT 13.601819 100.526543 1,075 137 179 0
2019-06-25 03:11:50 GMT 13.605927 100.522964 1,075 137 180 64
2019-06-25 03:11:46 GMT 13.608582 100.520264 1,075 137 181 0
2019-06-25 03:11:37 GMT 13.613364 100.515457 1,075 137 181 -64
2019-06-25 03:11:34 GMT 13.615505 100.513481 1,100 137 181 -320
2019-06-25 03:11:26 GMT 13.620300 100.509178 1,075 137 181 0
2019-06-25 03:11:23 GMT 13.621719 100.507858 1,075 137 181 0
2019-06-25 03:11:18 GMT 13.625700 100.503746 1,100 137 181 -192
2019-06-25 03:11:12 GMT 13.629285 100.501053 1,100 137 181 64
2019-06-25 03:11:06 GMT 13.633242 100.496956 1,075 137 182 64
2019-06-25 03:11:03 GMT 13.635406 100.494881 1,075 136 183 64
2019-06-25 03:10:56 GMT 13.639526 100.491508 1,075 137 184 -64
2019-06-25 03:10:51 GMT 13.642319 100.488724 1,075 137 184 64
2019-06-25 03:10:45 GMT 13.646323 100.484619 1,075 137 186 -64
2019-06-25 03:10:39 GMT 13.650467 100.481102 1,075 137 187 -64
2019-06-25 03:10:31 GMT 13.655365 100.476273 1,075 138 187 0
2019-06-25 03:10:23 GMT 13.660858 100.471436 1,100 138 189 192
2019-06-25 03:10:20 GMT 13.662964 100.469498 1,075 138 189 128
2019-06-25 03:10:08 GMT 13.670425 100.463196 1,075 177 194 384
2019-06-25 03:09:57 GMT 13.680038 100.461113 1,075 178 195 -64
2019-06-25 03:09:51 GMT 13.685486 100.461113 1,075 178 197 0
2019-06-25 03:09:48 GMT 13.688965 100.460503 1,100 178 197 -384
2019-06-25 03:09:41 GMT 13.695877 100.460449 1,175 178 197 -576
2019-06-25 03:09:35 GMT 13.700638 100.460503 1,225 178 196 -896
2019-06-25 03:09:29 GMT 13.706085 100.460449 1,275 177 194 -576
2019-06-25 03:09:26 GMT 13.708282 100.460358 1,300 177 194 -576
2019-06-25 03:09:19 GMT 13.715686 100.459755 1,375 177 192 -384
2019-06-25 03:09:15 GMT 13.718491 100.459839 1,400 177 192 -512
2019-06-25 03:09:07 GMT 13.725403 100.459785 1,450 178 191 -512
2019-06-25 03:09:03 GMT 13.727976 100.459656 1,475 178 190 -576
2019-06-25 03:08:56 GMT 13.734167 100.459129 1,525 177 190 -512
2019-06-25 03:08:53 GMT 13.738312 100.459129 1,575 177 190 -512
2019-06-25 03:08:45 GMT 13.745107 100.459030 1,625 177 190 -512
2019-06-25 03:08:42 GMT 13.747330 100.458420 1,650 177 190 -384
2019-06-25 03:08:35 GMT 13.754883 100.458450 1,725 177 191 -448
2019-06-25 03:08:32 GMT 13.756210 100.458366 1,725 177 191 -320
2019-06-25 03:08:24 GMT 13.765823 100.457756 1,800 177 192 -512
2019-06-25 03:08:13 GMT 13.772712 100.457779 1,875 177 193 -448
2019-06-25 03:08:10 GMT 13.776215 100.457611 1,900 177 193 -448
2019-06-25 03:08:02 GMT 13.787795 100.457008 2,000 177 194 -512
2019-06-25 03:07:58 GMT 13.787795 100.457008 2,000 177 194 -576
2019-06-25 03:07:51 GMT 13.793894 100.456383 2,050 177 194 -576
2019-06-25 03:07:47 GMT 13.796722 100.456284 2,075 177 194 -576
2019-06-25 03:07:40 GMT 13.802785 100.456383 2,150 177 194 -512
2019-06-25 03:07:37 GMT 13.805740 100.456284 2,175 177 195 -448
2019-06-25 03:07:30 GMT 13.813073 100.456238 2,275 178 196 -384
2019-06-25 03:07:27 GMT 13.815353 100.455673 2,250 179 196 -448
2019-06-25 03:07:18 GMT 13.823501 100.456238 2,300 189 196 -448
2019-06-25 03:07:14 GMT 13.826853 100.456963 2,325 200 196 -512
2019-06-25 03:07:08 GMT 13.832474 100.459648 2,400 219 195 -576
2019-06-25 03:07:04 GMT 13.834441 100.461632 0 227 195 -640
2019-06-25 03:06:57 GMT 13.837979 100.467079 0 246 195 -512
2019-06-25 03:06:54 GMT 13.839340 100.469215 0 248 195 -512
2019-06-25 03:06:47 GMT 13.841446 100.475418 0 250 195 -576
2019-06-25 03:06:44 GMT 13.842773 100.478111 0 249 194 -640
2019-06-25 03:06:36 GMT 13.844833 100.484459 0 249 194 -640
2019-06-25 03:06:33 GMT 13.846172 100.487801 0 249 194 -640
2019-06-25 03:06:25 GMT 13.848267 100.494072 0 250 191 -640
2019-06-25 03:06:22 GMT 13.849731 100.497482 0 250 190 -576
2019-06-25 03:06:13 GMT 13.852363 100.504280 0 250 184 -448
2019-06-25 03:06:10 GMT 13.853165 100.507004 0 250 182 -384
2019-06-25 03:06:03 GMT 13.855865 100.513252 0 249 177 0
2019-06-25 03:06:00 GMT 13.856552 100.515289 0 250 176 64
2019-06-25 03:05:52 GMT 13.858658 100.521492 0 250 172 512
2019-06-25 03:05:49 GMT 13.859253 100.523407 0 250 172 640
2019-06-25 03:05:43 GMT 13.861359 100.528404 0 250 171 896
2019-06-25 03:05:38 GMT 13.862651 100.531647 0 249 169 1088
2019-06-25 03:05:30 GMT 13.864746 100.538017 0 249 168 1344
2019-06-25 03:05:26 GMT 13.865537 100.539932 0 249 168 1280
2019-06-25 03:05:21 GMT 13.867586 100.544708 0 250 168 1344
2019-06-25 03:05:17 GMT 13.868866 100.547539 0 250 166 1408
2019-06-25 03:05:09 GMT 13.870938 100.553719 0 250 167 1472
2019-06-25 03:05:06 GMT 13.871589 100.556465 0 250 167 1472
2019-06-25 03:04:58 GMT 13.873684 100.561958 0 251 167 1600
2019-06-25 03:04:55 GMT 13.874405 100.564018 0 251 169 1664
2019-06-25 03:04:47 GMT 13.876431 100.570198 0 251 172 1728
2019-06-25 03:04:44 GMT 13.877781 100.572845 0 250 173 1536
2019-06-25 03:04:37 GMT 13.879166 100.577179 0 249 171 1152
2019-06-25 03:04:33 GMT 13.880574 100.581085 0 248 169 1472
2019-06-25 03:04:25 GMT 13.883367 100.587402 0 247 170 1600
2019-06-25 03:04:21 GMT 13.883926 100.588799 0 242 171 1472
2019-06-25 03:04:17 GMT 13.886719 100.592842 0 223 169 1280
2019-06-25 03:04:14 GMT 13.888674 100.594193 0 216 169 1472
2019-06-25 03:04:11 GMT 13.889511 100.594986 0 213 168 1536
2019-06-25 03:04:06 GMT 13.892990 100.597122 0 212 168 1408
2019-06-25 03:04:03 GMT 13.897064 100.599815 0 212 166 1024
2019-06-25 03:03:54 GMT 13.901138 100.601761 0 211 164 1024

Making use of Plane Finder data

You are free to use the raw flight data, aircraft information and images provided in this report for your own purposes provided the data is correctly attributed to Plane Finder. We ask that you please credit Plane Finder and link to planefinder.net in close proximity to the content.

Optionally one of the following logos (no smaller then 150x24px) can be used and must link to planefinder.net

Embedding the Plane Finder map

You are welcome to embed the Plane Finder playback map on your website to offer visitors a more interactive experience. We suggest using the following HTML code:

<iframe src="//planefinder.net/data/report/HSIM3-HS-AIM-7700-squawk-2019-06-25/map" width="800" height="600" seamless="seamless"></iframe>

Where our data comes from

Plane Finder has a global network of data feeds and antenna radars that receive data broadcast directly from aircraft. The primary technologies used are ADS-B and MLAT. We also show feeds from the FAA and a FLARM glider feed.

Click here to find out more about the Plane Finder network.

How we collect our data